<?xml version="1.0" encoding="UTF-8" standalone="no" ?>
<gpx xmlns="http://www.topografix.com/GPX/1/1" xmlns:xsi="http://www.w3.org/2001/XMLSchema-instance" xsi:schemaLocation="http://www.topografix.com/GPX/1/1 http://www.topografix.com/GPX/1/1/gpx.xsd" version="1.1" creator="VisuGPX - https://www.visugpx.com">
  <metadata>
    <name>16 km</name>
  </metadata>
  <trk>
    <name><![CDATA[16 juin 40 km]]></name>
    <trkseg>
      <trkpt lat="45.694" lon="2.99562">
        <ele>917.24</ele>
        <time>2021-06-16T09:42:21Z</time>
      </trkpt>
      <trkpt lat="45.69401" lon="2.9956">
        <ele>916.75</ele>
        <time>2021-06-16T09:42:22Z</time>
      </trkpt>
      <trkpt lat="45.69402" lon="2.99557">
        <ele>917.72</ele>
        <time>2021-06-16T09:42:23Z</time>
      </trkpt>
      <trkpt lat="45.69403" lon="2.99555">
        <ele>916.75</ele>
        <time>2021-06-16T09:42:24Z</time>
      </trkpt>
      <trkpt lat="45.69404" lon="2.99552">
        <ele>916.75</ele>
        <time>2021-06-16T09:42:25Z</time>
      </trkpt>
      <trkpt lat="45.69404" lon="2.9955">
        <ele>916.75</ele>
        <time>2021-06-16T09:42:26Z</time>
      </trkpt>
      <trkpt lat="45.69405" lon="2.99548">
        <ele>917.24</ele>
        <time>2021-06-16T09:42:27Z</time>
      </trkpt>
      <trkpt lat="45.6941" lon="2.99524">
        <ele>917.24</ele>
        <time>2021-06-16T09:42:36Z</time>
      </trkpt>
      <trkpt lat="45.6941" lon="2.99522">
        <ele>916.75</ele>
        <time>2021-06-16T09:42:48Z</time>
      </trkpt>
      <trkpt lat="45.6941" lon="2.99519">
        <ele>917.24</ele>
        <time>2021-06-16T09:42:49Z</time>
      </trkpt>
      <trkpt lat="45.69411" lon="2.99516">
        <ele>916.75</ele>
        <time>2021-06-16T09:42:50Z</time>
      </trkpt>
      <trkpt lat="45.6941" lon="2.99501">
        <ele>917.24</ele>
        <time>2021-06-16T09:42:55Z</time>
      </trkpt>
      <trkpt lat="45.69409" lon="2.99498">
        <ele>917.24</ele>
        <time>2021-06-16T09:42:56Z</time>
      </trkpt>
      <trkpt lat="45.69409" lon="2.99494">
        <ele>916.75</ele>
        <time>2021-06-16T09:42:57Z</time>
      </trkpt>
      <trkpt lat="45.69409" lon="2.99491">
        <ele>917.24</ele>
        <time>2021-06-16T09:42:58Z</time>
      </trkpt>
      <trkpt lat="45.69409" lon="2.99488">
        <ele>917.72</ele>
        <time>2021-06-16T09:42:59Z</time>
      </trkpt>
      <trkpt lat="45.69409" lon="2.99484">
        <ele>917.24</ele>
        <time>2021-06-16T09:43:00Z</time>
      </trkpt>
      <trkpt lat="45.69409" lon="2.9948">
        <ele>917.72</ele>
        <time>2021-06-16T09:43:01Z</time>
      </trkpt>
      <trkpt lat="45.6941" lon="2.99476">
        <ele>917.72</ele>
        <time>2021-06-16T09:43:02Z</time>
      </trkpt>
      <trkpt lat="45.69411" lon="2.99473">
        <ele>917.72</ele>
        <time>2021-06-16T09:43:03Z</time>
      </trkpt>
      <trkpt lat="45.69411" lon="2.99469">
        <ele>917.72</ele>
        <time>2021-06-16T09:43:04Z</time>
      </trkpt>
      <trkpt lat="45.69412" lon="2.99464">
        <ele>917.72</ele>
        <time>2021-06-16T09:43:05Z</time>
      </trkpt>
      <trkpt lat="45.69426" lon="2.99427">
        <ele>920.6</ele>
        <time>2021-06-16T09:43:16Z</time>
      </trkpt>
      <trkpt lat="45.69439" lon="2.99416">
        <ele>920.12</ele>
        <time>2021-06-16T09:43:24Z</time>
      </trkpt>
      <trkpt lat="45.69469" lon="2.99395">
        <ele>921.56</ele>
        <time>2021-06-16T09:43:34Z</time>
      </trkpt>
      <trkpt lat="45.69488" lon="2.99367">
        <ele>923</ele>
        <time>2021-06-16T09:43:43Z</time>
      </trkpt>
      <trkpt lat="45.69504" lon="2.99334">
        <ele>924.45</ele>
        <time>2021-06-16T09:43:54Z</time>
      </trkpt>
      <trkpt lat="45.69515" lon="2.99299">
        <ele>925.89</ele>
        <time>2021-06-16T09:44:04Z</time>
      </trkpt>
      <trkpt lat="45.69516" lon="2.99296">
        <ele>925.89</ele>
        <time>2021-06-16T09:44:05Z</time>
      </trkpt>
      <trkpt lat="45.69516" lon="2.99293">
        <ele>926.37</ele>
        <time>2021-06-16T09:44:06Z</time>
      </trkpt>
      <trkpt lat="45.69522" lon="2.99268">
        <ele>928.29</ele>
        <time>2021-06-16T09:44:14Z</time>
      </trkpt>
      <trkpt lat="45.69526" lon="2.99238">
        <ele>929.25</ele>
        <time>2021-06-16T09:44:25Z</time>
      </trkpt>
      <trkpt lat="45.69543" lon="2.99187">
        <ele>929.73</ele>
        <time>2021-06-16T09:44:38Z</time>
      </trkpt>
      <trkpt lat="45.6956" lon="2.99142">
        <ele>931.65</ele>
        <time>2021-06-16T09:44:50Z</time>
      </trkpt>
      <trkpt lat="45.69563" lon="2.99113">
        <ele>935.02</ele>
        <time>2021-06-16T09:45:02Z</time>
      </trkpt>
      <trkpt lat="45.69562" lon="2.99109">
        <ele>935.02</ele>
        <time>2021-06-16T09:45:04Z</time>
      </trkpt>
      <trkpt lat="45.69551" lon="2.99063">
        <ele>935.02</ele>
        <time>2021-06-16T09:45:16Z</time>
      </trkpt>
      <trkpt lat="45.69532" lon="2.99007">
        <ele>934.06</ele>
        <time>2021-06-16T09:45:28Z</time>
      </trkpt>
      <trkpt lat="45.69521" lon="2.98973">
        <ele>933.1</ele>
        <time>2021-06-16T09:45:33Z</time>
      </trkpt>
      <trkpt lat="45.6952" lon="2.98967">
        <ele>933.1</ele>
        <time>2021-06-16T09:45:34Z</time>
      </trkpt>
      <trkpt lat="45.6952" lon="2.98959">
        <ele>933.1</ele>
        <time>2021-06-16T09:45:35Z</time>
      </trkpt>
      <trkpt lat="45.6952" lon="2.98953">
        <ele>933.1</ele>
        <time>2021-06-16T09:45:36Z</time>
      </trkpt>
      <trkpt lat="45.69521" lon="2.98948">
        <ele>933.1</ele>
        <time>2021-06-16T09:45:37Z</time>
      </trkpt>
      <trkpt lat="45.69523" lon="2.98942">
        <ele>933.1</ele>
        <time>2021-06-16T09:45:38Z</time>
      </trkpt>
      <trkpt lat="45.69525" lon="2.98938">
        <ele>933.1</ele>
        <time>2021-06-16T09:45:39Z</time>
      </trkpt>
      <trkpt lat="45.69531" lon="2.98925">
        <ele>933.58</ele>
        <time>2021-06-16T09:45:47Z</time>
      </trkpt>
      <trkpt lat="45.69532" lon="2.98922">
        <ele>933.58</ele>
        <time>2021-06-16T09:45:48Z</time>
      </trkpt>
      <trkpt lat="45.69533" lon="2.98919">
        <ele>933.58</ele>
        <time>2021-06-16T09:45:49Z</time>
      </trkpt>
      <trkpt lat="45.69535" lon="2.98915">
        <ele>933.58</ele>
        <time>2021-06-16T09:45:50Z</time>
      </trkpt>
      <trkpt lat="45.69536" lon="2.98911">
        <ele>934.06</ele>
        <time>2021-06-16T09:45:51Z</time>
      </trkpt>
      <trkpt lat="45.69552" lon="2.98883">
        <ele>934.54</ele>
        <time>2021-06-16T09:45:58Z</time>
      </trkpt>
      <trkpt lat="45.69554" lon="2.98878">
        <ele>934.06</ele>
        <time>2021-06-16T09:45:59Z</time>
      </trkpt>
      <trkpt lat="45.69555" lon="2.98873">
        <ele>934.06</ele>
        <time>2021-06-16T09:46:00Z</time>
      </trkpt>
      <trkpt lat="45.69557" lon="2.98868">
        <ele>934.06</ele>
        <time>2021-06-16T09:46:01Z</time>
      </trkpt>
      <trkpt lat="45.69558" lon="2.98863">
        <ele>934.54</ele>
        <time>2021-06-16T09:46:02Z</time>
      </trkpt>
      <trkpt lat="45.6956" lon="2.98858">
        <ele>935.02</ele>
        <time>2021-06-16T09:46:03Z</time>
      </trkpt>
      <trkpt lat="45.69561" lon="2.98852">
        <ele>935.5</ele>
        <time>2021-06-16T09:46:04Z</time>
      </trkpt>
      <trkpt lat="45.69562" lon="2.98847">
        <ele>935.02</ele>
        <time>2021-06-16T09:46:05Z</time>
      </trkpt>
      <trkpt lat="45.69574" lon="2.9879">
        <ele>937.42</ele>
        <time>2021-06-16T09:46:18Z</time>
      </trkpt>
      <trkpt lat="45.69581" lon="2.98751">
        <ele>938.38</ele>
        <time>2021-06-16T09:46:28Z</time>
      </trkpt>
      <trkpt lat="45.69594" lon="2.98709">
        <ele>937.9</ele>
        <time>2021-06-16T09:46:38Z</time>
      </trkpt>
      <trkpt lat="45.69603" lon="2.98683">
        <ele>936.46</ele>
        <time>2021-06-16T09:46:43Z</time>
      </trkpt>
      <trkpt lat="45.69606" lon="2.98676">
        <ele>936.46</ele>
        <time>2021-06-16T09:46:44Z</time>
      </trkpt>
      <trkpt lat="45.69618" lon="2.98617">
        <ele>936.94</ele>
        <time>2021-06-16T09:46:54Z</time>
      </trkpt>
      <trkpt lat="45.69619" lon="2.98608">
        <ele>937.9</ele>
        <time>2021-06-16T09:46:56Z</time>
      </trkpt>
      <trkpt lat="45.6962" lon="2.98604">
        <ele>937.9</ele>
        <time>2021-06-16T09:46:57Z</time>
      </trkpt>
      <trkpt lat="45.69622" lon="2.986">
        <ele>938.38</ele>
        <time>2021-06-16T09:46:58Z</time>
      </trkpt>
      <trkpt lat="45.6964" lon="2.9854">
        <ele>939.83</ele>
        <time>2021-06-16T09:47:11Z</time>
      </trkpt>
      <trkpt lat="45.69642" lon="2.98494">
        <ele>942.23</ele>
        <time>2021-06-16T09:47:23Z</time>
      </trkpt>
      <trkpt lat="45.69643" lon="2.98476">
        <ele>943.67</ele>
        <time>2021-06-16T09:47:28Z</time>
      </trkpt>
      <trkpt lat="45.69643" lon="2.98474">
        <ele>943.67</ele>
        <time>2021-06-16T09:47:29Z</time>
      </trkpt>
      <trkpt lat="45.69643" lon="2.98472">
        <ele>944.15</ele>
        <time>2021-06-16T09:47:30Z</time>
      </trkpt>
      <trkpt lat="45.69649" lon="2.98445">
        <ele>945.59</ele>
        <time>2021-06-16T09:47:41Z</time>
      </trkpt>
      <trkpt lat="45.69653" lon="2.9841">
        <ele>947.04</ele>
        <time>2021-06-16T09:47:52Z</time>
      </trkpt>
      <trkpt lat="45.69659" lon="2.98383">
        <ele>948</ele>
        <time>2021-06-16T09:48:01Z</time>
      </trkpt>
      <trkpt lat="45.6966" lon="2.98381">
        <ele>948.48</ele>
        <time>2021-06-16T09:48:02Z</time>
      </trkpt>
      <trkpt lat="45.69663" lon="2.9837">
        <ele>948.48</ele>
        <time>2021-06-16T09:48:07Z</time>
      </trkpt>
      <trkpt lat="45.69664" lon="2.98367">
        <ele>948.96</ele>
        <time>2021-06-16T09:48:08Z</time>
      </trkpt>
      <trkpt lat="45.69665" lon="2.98365">
        <ele>948.96</ele>
        <time>2021-06-16T09:48:09Z</time>
      </trkpt>
      <trkpt lat="45.69666" lon="2.98362">
        <ele>948.96</ele>
        <time>2021-06-16T09:48:10Z</time>
      </trkpt>
      <trkpt lat="45.69666" lon="2.9836">
        <ele>948.96</ele>
        <time>2021-06-16T09:48:11Z</time>
      </trkpt>
      <trkpt lat="45.69673" lon="2.98309">
        <ele>949.44</ele>
        <time>2021-06-16T09:48:23Z</time>
      </trkpt>
      <trkpt lat="45.69686" lon="2.98244">
        <ele>949.44</ele>
        <time>2021-06-16T09:48:35Z</time>
      </trkpt>
      <trkpt lat="45.69689" lon="2.98227">
        <ele>949.92</ele>
        <time>2021-06-16T09:48:39Z</time>
      </trkpt>
      <trkpt lat="45.6969" lon="2.98223">
        <ele>949.92</ele>
        <time>2021-06-16T09:48:40Z</time>
      </trkpt>
      <trkpt lat="45.69703" lon="2.98169">
        <ele>949.44</ele>
        <time>2021-06-16T09:48:52Z</time>
      </trkpt>
      <trkpt lat="45.69706" lon="2.98116">
        <ele>949.44</ele>
        <time>2021-06-16T09:49:02Z</time>
      </trkpt>
      <trkpt lat="45.69715" lon="2.98058">
        <ele>949.44</ele>
        <time>2021-06-16T09:49:12Z</time>
      </trkpt>
      <trkpt lat="45.69732" lon="2.97996">
        <ele>950.4</ele>
        <time>2021-06-16T09:49:24Z</time>
      </trkpt>
      <trkpt lat="45.6974" lon="2.97932">
        <ele>951.36</ele>
        <time>2021-06-16T09:49:36Z</time>
      </trkpt>
      <trkpt lat="45.69762" lon="2.97874">
        <ele>953.28</ele>
        <time>2021-06-16T09:49:49Z</time>
      </trkpt>
      <trkpt lat="45.69776" lon="2.97829">
        <ele>954.25</ele>
        <time>2021-06-16T09:50:00Z</time>
      </trkpt>
      <trkpt lat="45.69791" lon="2.97799">
        <ele>955.21</ele>
        <time>2021-06-16T09:50:08Z</time>
      </trkpt>
      <trkpt lat="45.69809" lon="2.97756">
        <ele>956.65</ele>
        <time>2021-06-16T09:50:20Z</time>
      </trkpt>
      <trkpt lat="45.69821" lon="2.9771">
        <ele>958.09</ele>
        <time>2021-06-16T09:50:32Z</time>
      </trkpt>
      <trkpt lat="45.69826" lon="2.97671">
        <ele>959.53</ele>
        <time>2021-06-16T09:50:42Z</time>
      </trkpt>
      <trkpt lat="45.69832" lon="2.97636">
        <ele>960.98</ele>
        <time>2021-06-16T09:50:51Z</time>
      </trkpt>
      <trkpt lat="45.69833" lon="2.9763">
        <ele>961.46</ele>
        <time>2021-06-16T09:50:53Z</time>
      </trkpt>
      <trkpt lat="45.69833" lon="2.97627">
        <ele>960.49</ele>
        <time>2021-06-16T09:50:54Z</time>
      </trkpt>
      <trkpt lat="45.69834" lon="2.97624">
        <ele>961.46</ele>
        <time>2021-06-16T09:50:55Z</time>
      </trkpt>
      <trkpt lat="45.69835" lon="2.97621">
        <ele>961.46</ele>
        <time>2021-06-16T09:50:56Z</time>
      </trkpt>
      <trkpt lat="45.69837" lon="2.97617">
        <ele>961.46</ele>
        <time>2021-06-16T09:50:57Z</time>
      </trkpt>
      <trkpt lat="45.69839" lon="2.97614">
        <ele>961.94</ele>
        <time>2021-06-16T09:50:58Z</time>
      </trkpt>
      <trkpt lat="45.69849" lon="2.9758">
        <ele>962.9</ele>
        <time>2021-06-16T09:51:08Z</time>
      </trkpt>
      <trkpt lat="45.6986" lon="2.97545">
        <ele>964.34</ele>
        <time>2021-06-16T09:51:19Z</time>
      </trkpt>
      <trkpt lat="45.69868" lon="2.97518">
        <ele>965.78</ele>
        <time>2021-06-16T09:51:27Z</time>
      </trkpt>
      <trkpt lat="45.69877" lon="2.97492">
        <ele>967.7</ele>
        <time>2021-06-16T09:51:37Z</time>
      </trkpt>
      <trkpt lat="45.69886" lon="2.97463">
        <ele>968.67</ele>
        <time>2021-06-16T09:51:47Z</time>
      </trkpt>
      <trkpt lat="45.69897" lon="2.97438">
        <ele>970.59</ele>
        <time>2021-06-16T09:51:58Z</time>
      </trkpt>
      <trkpt lat="45.69903" lon="2.97423">
        <ele>971.55</ele>
        <time>2021-06-16T09:52:06Z</time>
      </trkpt>
      <trkpt lat="45.69904" lon="2.97421">
        <ele>972.03</ele>
        <time>2021-06-16T09:52:07Z</time>
      </trkpt>
      <trkpt lat="45.69918" lon="2.97398">
        <ele>973.47</ele>
        <time>2021-06-16T09:52:16Z</time>
      </trkpt>
      <trkpt lat="45.69931" lon="2.97361">
        <ele>975.88</ele>
        <time>2021-06-16T09:52:28Z</time>
      </trkpt>
      <trkpt lat="45.69936" lon="2.97339">
        <ele>977.8</ele>
        <time>2021-06-16T09:52:39Z</time>
      </trkpt>
      <trkpt lat="45.69943" lon="2.97311">
        <ele>979.72</ele>
        <time>2021-06-16T09:52:51Z</time>
      </trkpt>
      <trkpt lat="45.69944" lon="2.97308">
        <ele>980.2</ele>
        <time>2021-06-16T09:52:53Z</time>
      </trkpt>
      <trkpt lat="45.69945" lon="2.97304">
        <ele>980.2</ele>
        <time>2021-06-16T09:52:54Z</time>
      </trkpt>
      <trkpt lat="45.69945" lon="2.97302">
        <ele>980.2</ele>
        <time>2021-06-16T09:52:55Z</time>
      </trkpt>
      <trkpt lat="45.69946" lon="2.97299">
        <ele>980.2</ele>
        <time>2021-06-16T09:52:56Z</time>
      </trkpt>
      <trkpt lat="45.69947" lon="2.97297">
        <ele>980.68</ele>
        <time>2021-06-16T09:52:57Z</time>
      </trkpt>
      <trkpt lat="45.69948" lon="2.97294">
        <ele>980.68</ele>
        <time>2021-06-16T09:52:58Z</time>
      </trkpt>
      <trkpt lat="45.69952" lon="2.97278">
        <ele>981.16</ele>
        <time>2021-06-16T09:53:05Z</time>
      </trkpt>
      <trkpt lat="45.69953" lon="2.97276">
        <ele>981.64</ele>
        <time>2021-06-16T09:53:06Z</time>
      </trkpt>
      <trkpt lat="45.69954" lon="2.97273">
        <ele>981.64</ele>
        <time>2021-06-16T09:53:07Z</time>
      </trkpt>
      <trkpt lat="45.69955" lon="2.9727">
        <ele>981.16</ele>
        <time>2021-06-16T09:53:08Z</time>
      </trkpt>
      <trkpt lat="45.69955" lon="2.97267">
        <ele>981.64</ele>
        <time>2021-06-16T09:53:09Z</time>
      </trkpt>
      <trkpt lat="45.69955" lon="2.97265">
        <ele>982.12</ele>
        <time>2021-06-16T09:53:10Z</time>
      </trkpt>
      <trkpt lat="45.69956" lon="2.97262">
        <ele>982.6</ele>
        <time>2021-06-16T09:53:11Z</time>
      </trkpt>
      <trkpt lat="45.69958" lon="2.97259">
        <ele>982.12</ele>
        <time>2021-06-16T09:53:12Z</time>
      </trkpt>
      <trkpt lat="45.69959" lon="2.97255">
        <ele>982.12</ele>
        <time>2021-06-16T09:53:13Z</time>
      </trkpt>
      <trkpt lat="45.69961" lon="2.9723">
        <ele>983.57</ele>
        <time>2021-06-16T09:53:23Z</time>
      </trkpt>
      <trkpt lat="45.69972" lon="2.9719">
        <ele>984.05</ele>
        <time>2021-06-16T09:53:35Z</time>
      </trkpt>
      <trkpt lat="45.69993" lon="2.97132">
        <ele>983.57</ele>
        <time>2021-06-16T09:53:49Z</time>
      </trkpt>
      <trkpt lat="45.70011" lon="2.97075">
        <ele>983.09</ele>
        <time>2021-06-16T09:54:02Z</time>
      </trkpt>
      <trkpt lat="45.70039" lon="2.97019">
        <ele>982.6</ele>
        <time>2021-06-16T09:54:16Z</time>
      </trkpt>
      <trkpt lat="45.70063" lon="2.96977">
        <ele>982.12</ele>
        <time>2021-06-16T09:54:27Z</time>
      </trkpt>
      <trkpt lat="45.70071" lon="2.96959">
        <ele>982.12</ele>
        <time>2021-06-16T09:54:31Z</time>
      </trkpt>
      <trkpt lat="45.70073" lon="2.96954">
        <ele>982.6</ele>
        <time>2021-06-16T09:54:32Z</time>
      </trkpt>
      <trkpt lat="45.70084" lon="2.9691">
        <ele>982.12</ele>
        <time>2021-06-16T09:54:42Z</time>
      </trkpt>
      <trkpt lat="45.70097" lon="2.96874">
        <ele>981.64</ele>
        <time>2021-06-16T09:54:50Z</time>
      </trkpt>
      <trkpt lat="45.701" lon="2.96869">
        <ele>981.64</ele>
        <time>2021-06-16T09:54:51Z</time>
      </trkpt>
      <trkpt lat="45.70102" lon="2.96864">
        <ele>981.64</ele>
        <time>2021-06-16T09:54:52Z</time>
      </trkpt>
      <trkpt lat="45.70104" lon="2.96859">
        <ele>981.64</ele>
        <time>2021-06-16T09:54:53Z</time>
      </trkpt>
      <trkpt lat="45.70106" lon="2.96854">
        <ele>981.16</ele>
        <time>2021-06-16T09:54:54Z</time>
      </trkpt>
      <trkpt lat="45.70106" lon="2.96849">
        <ele>981.16</ele>
        <time>2021-06-16T09:54:55Z</time>
      </trkpt>
      <trkpt lat="45.70108" lon="2.96844">
        <ele>981.16</ele>
        <time>2021-06-16T09:54:56Z</time>
      </trkpt>
      <trkpt lat="45.70109" lon="2.9684">
        <ele>981.16</ele>
        <time>2021-06-16T09:54:57Z</time>
      </trkpt>
      <trkpt lat="45.70112" lon="2.96836">
        <ele>981.16</ele>
        <time>2021-06-16T09:54:58Z</time>
      </trkpt>
      <trkpt lat="45.7013" lon="2.96795">
        <ele>981.64</ele>
        <time>2021-06-16T09:55:09Z</time>
      </trkpt>
      <trkpt lat="45.70138" lon="2.96732">
        <ele>982.6</ele>
        <time>2021-06-16T09:55:22Z</time>
      </trkpt>
      <trkpt lat="45.70138" lon="2.9669">
        <ele>983.09</ele>
        <time>2021-06-16T09:55:33Z</time>
      </trkpt>
      <trkpt lat="45.7013" lon="2.96641">
        <ele>984.53</ele>
        <time>2021-06-16T09:55:46Z</time>
      </trkpt>
      <trkpt lat="45.70128" lon="2.96631">
        <ele>985.49</ele>
        <time>2021-06-16T09:55:51Z</time>
      </trkpt>
      <trkpt lat="45.70128" lon="2.96628">
        <ele>985.01</ele>
        <time>2021-06-16T09:55:52Z</time>
      </trkpt>
      <trkpt lat="45.70128" lon="2.96626">
        <ele>985.01</ele>
        <time>2021-06-16T09:55:53Z</time>
      </trkpt>
      <trkpt lat="45.70126" lon="2.96623">
        <ele>985.49</ele>
        <time>2021-06-16T09:55:54Z</time>
      </trkpt>
      <trkpt lat="45.70125" lon="2.9662">
        <ele>985.49</ele>
        <time>2021-06-16T09:55:55Z</time>
      </trkpt>
      <trkpt lat="45.70124" lon="2.96616">
        <ele>985.01</ele>
        <time>2021-06-16T09:55:56Z</time>
      </trkpt>
      <trkpt lat="45.70122" lon="2.96612">
        <ele>985.49</ele>
        <time>2021-06-16T09:55:57Z</time>
      </trkpt>
      <trkpt lat="45.70116" lon="2.966">
        <ele>985.97</ele>
        <time>2021-06-16T09:56:00Z</time>
      </trkpt>
      <trkpt lat="45.70113" lon="2.96597">
        <ele>985.97</ele>
        <time>2021-06-16T09:56:01Z</time>
      </trkpt>
      <trkpt lat="45.7011" lon="2.96593">
        <ele>985.97</ele>
        <time>2021-06-16T09:56:02Z</time>
      </trkpt>
      <trkpt lat="45.70086" lon="2.96551">
        <ele>988.37</ele>
        <time>2021-06-16T09:56:16Z</time>
      </trkpt>
      <trkpt lat="45.70085" lon="2.96544">
        <ele>989.33</ele>
        <time>2021-06-16T09:56:18Z</time>
      </trkpt>
      <trkpt lat="45.70073" lon="2.96505">
        <ele>990.78</ele>
        <time>2021-06-16T09:56:31Z</time>
      </trkpt>
      <trkpt lat="45.70071" lon="2.96489">
        <ele>991.74</ele>
        <time>2021-06-16T09:56:37Z</time>
      </trkpt>
      <trkpt lat="45.70072" lon="2.96488">
        <ele>992.22</ele>
        <time>2021-06-16T09:56:38Z</time>
      </trkpt>
      <trkpt lat="45.70072" lon="2.96486">
        <ele>993.18</ele>
        <time>2021-06-16T09:56:39Z</time>
      </trkpt>
      <trkpt lat="45.70072" lon="2.96484">
        <ele>993.18</ele>
        <time>2021-06-16T09:56:40Z</time>
      </trkpt>
      <trkpt lat="45.70072" lon="2.96481">
        <ele>993.18</ele>
        <time>2021-06-16T09:56:41Z</time>
      </trkpt>
      <trkpt lat="45.70072" lon="2.96479">
        <ele>993.18</ele>
        <time>2021-06-16T09:56:42Z</time>
      </trkpt>
      <trkpt lat="45.70073" lon="2.96476">
        <ele>993.18</ele>
        <time>2021-06-16T09:56:43Z</time>
      </trkpt>
      <trkpt lat="45.70073" lon="2.96473">
        <ele>993.18</ele>
        <time>2021-06-16T09:56:44Z</time>
      </trkpt>
      <trkpt lat="45.70073" lon="2.96471">
        <ele>994.14</ele>
        <time>2021-06-16T09:56:45Z</time>
      </trkpt>
      <trkpt lat="45.70073" lon="2.96466">
        <ele>993.18</ele>
        <time>2021-06-16T09:56:46Z</time>
      </trkpt>
      <trkpt lat="45.70073" lon="2.96463">
        <ele>993.66</ele>
        <time>2021-06-16T09:56:47Z</time>
      </trkpt>
      <trkpt lat="45.70073" lon="2.9646">
        <ele>993.66</ele>
        <time>2021-06-16T09:56:48Z</time>
      </trkpt>
      <trkpt lat="45.70073" lon="2.96456">
        <ele>994.14</ele>
        <time>2021-06-16T09:56:49Z</time>
      </trkpt>
      <trkpt lat="45.70073" lon="2.96453">
        <ele>994.14</ele>
        <time>2021-06-16T09:56:50Z</time>
      </trkpt>
      <trkpt lat="45.70073" lon="2.9645">
        <ele>994.62</ele>
        <time>2021-06-16T09:56:51Z</time>
      </trkpt>
      <trkpt lat="45.70077" lon="2.96415">
        <ele>996.06</ele>
        <time>2021-06-16T09:57:03Z</time>
      </trkpt>
      <trkpt lat="45.70077" lon="2.96412">
        <ele>996.54</ele>
        <time>2021-06-16T09:57:04Z</time>
      </trkpt>
      <trkpt lat="45.70077" lon="2.96409">
        <ele>996.54</ele>
        <time>2021-06-16T09:57:05Z</time>
      </trkpt>
      <trkpt lat="45.70079" lon="2.96386">
        <ele>997.51</ele>
        <time>2021-06-16T09:57:13Z</time>
      </trkpt>
      <trkpt lat="45.70077" lon="2.96347">
        <ele>999.43</ele>
        <time>2021-06-16T09:57:25Z</time>
      </trkpt>
      <trkpt lat="45.7008" lon="2.96332">
        <ele>1000.39</ele>
        <time>2021-06-16T09:57:38Z</time>
      </trkpt>
      <trkpt lat="45.70081" lon="2.96331">
        <ele>1001.83</ele>
        <time>2021-06-16T09:57:52Z</time>
      </trkpt>
      <trkpt lat="45.70079" lon="2.96326">
        <ele>1004.72</ele>
        <time>2021-06-16T09:58:04Z</time>
      </trkpt>
      <trkpt lat="45.70085" lon="2.9633">
        <ele>1007.12</ele>
        <time>2021-06-16T09:58:17Z</time>
      </trkpt>
      <trkpt lat="45.70102" lon="2.96331">
        <ele>1008.08</ele>
        <time>2021-06-16T09:58:33Z</time>
      </trkpt>
      <trkpt lat="45.701" lon="2.9633">
        <ele>1011.44</ele>
        <time>2021-06-16T10:01:45Z</time>
      </trkpt>
      <trkpt lat="45.70107" lon="2.96308">
        <ele>1010.48</ele>
        <time>2021-06-16T10:02:04Z</time>
      </trkpt>
      <trkpt lat="45.70132" lon="2.96294">
        <ele>1012.41</ele>
        <time>2021-06-16T10:02:13Z</time>
      </trkpt>
      <trkpt lat="45.70133" lon="2.96295">
        <ele>1012.89</ele>
        <time>2021-06-16T10:02:14Z</time>
      </trkpt>
      <trkpt lat="45.70135" lon="2.96296">
        <ele>1012.89</ele>
        <time>2021-06-16T10:02:15Z</time>
      </trkpt>
      <trkpt lat="45.70136" lon="2.96297">
        <ele>1012.89</ele>
        <time>2021-06-16T10:02:16Z</time>
      </trkpt>
      <trkpt lat="45.70138" lon="2.96299">
        <ele>1012.89</ele>
        <time>2021-06-16T10:02:17Z</time>
      </trkpt>
      <trkpt lat="45.70139" lon="2.96301">
        <ele>1012.89</ele>
        <time>2021-06-16T10:02:18Z</time>
      </trkpt>
      <trkpt lat="45.70141" lon="2.96304">
        <ele>1012.41</ele>
        <time>2021-06-16T10:02:19Z</time>
      </trkpt>
      <trkpt lat="45.70143" lon="2.96307">
        <ele>1012.41</ele>
        <time>2021-06-16T10:02:20Z</time>
      </trkpt>
      <trkpt lat="45.70144" lon="2.9631">
        <ele>1012.89</ele>
        <time>2021-06-16T10:02:21Z</time>
      </trkpt>
      <trkpt lat="45.70151" lon="2.96334">
        <ele>1013.37</ele>
        <time>2021-06-16T10:02:30Z</time>
      </trkpt>
      <trkpt lat="45.70153" lon="2.96335">
        <ele>1013.85</ele>
        <time>2021-06-16T10:02:31Z</time>
      </trkpt>
      <trkpt lat="45.70154" lon="2.96335">
        <ele>1013.37</ele>
        <time>2021-06-16T10:02:32Z</time>
      </trkpt>
      <trkpt lat="45.70155" lon="2.96333">
        <ele>1013.85</ele>
        <time>2021-06-16T10:02:33Z</time>
      </trkpt>
      <trkpt lat="45.70155" lon="2.96331">
        <ele>1013.85</ele>
        <time>2021-06-16T10:02:34Z</time>
      </trkpt>
      <trkpt lat="45.70155" lon="2.96329">
        <ele>1013.85</ele>
        <time>2021-06-16T10:02:35Z</time>
      </trkpt>
      <trkpt lat="45.70155" lon="2.96326">
        <ele>1013.37</ele>
        <time>2021-06-16T10:02:36Z</time>
      </trkpt>
      <trkpt lat="45.70155" lon="2.96323">
        <ele>1012.89</ele>
        <time>2021-06-16T10:02:37Z</time>
      </trkpt>
      <trkpt lat="45.70154" lon="2.9632">
        <ele>1012.89</ele>
        <time>2021-06-16T10:02:38Z</time>
      </trkpt>
      <trkpt lat="45.70152" lon="2.96318">
        <ele>1012.89</ele>
        <time>2021-06-16T10:02:39Z</time>
      </trkpt>
      <trkpt lat="45.70151" lon="2.96316">
        <ele>1013.37</ele>
        <time>2021-06-16T10:02:40Z</time>
      </trkpt>
      <trkpt lat="45.70149" lon="2.96314">
        <ele>1012.89</ele>
        <time>2021-06-16T10:02:41Z</time>
      </trkpt>
      <trkpt lat="45.70137" lon="2.96297">
        <ele>1012.89</ele>
        <time>2021-06-16T10:02:49Z</time>
      </trkpt>
      <trkpt lat="45.70137" lon="2.96295">
        <ele>1012.89</ele>
        <time>2021-06-16T10:02:50Z</time>
      </trkpt>
      <trkpt lat="45.70125" lon="2.96265">
        <ele>1013.37</ele>
        <time>2021-06-16T10:03:02Z</time>
      </trkpt>
      <trkpt lat="45.70141" lon="2.96232">
        <ele>1011.93</ele>
        <time>2021-06-16T10:03:14Z</time>
      </trkpt>
      <trkpt lat="45.70158" lon="2.96194">
        <ele>1011.44</ele>
        <time>2021-06-16T10:03:27Z</time>
      </trkpt>
      <trkpt lat="45.70169" lon="2.96164">
        <ele>1011.44</ele>
        <time>2021-06-16T10:03:39Z</time>
      </trkpt>
      <trkpt lat="45.70168" lon="2.96163">
        <ele>1010.96</ele>
        <time>2021-06-16T10:04:13Z</time>
      </trkpt>
      <trkpt lat="45.70166" lon="2.96153">
        <ele>1008.08</ele>
        <time>2021-06-16T10:04:28Z</time>
      </trkpt>
      <trkpt lat="45.70168" lon="2.96142">
        <ele>1005.2</ele>
        <time>2021-06-16T10:04:40Z</time>
      </trkpt>
      <trkpt lat="45.70168" lon="2.96134">
        <ele>1001.83</ele>
        <time>2021-06-16T10:04:54Z</time>
      </trkpt>
      <trkpt lat="45.70168" lon="2.96121">
        <ele>999.43</ele>
        <time>2021-06-16T10:05:09Z</time>
      </trkpt>
      <trkpt lat="45.70168" lon="2.96114">
        <ele>997.51</ele>
        <time>2021-06-16T10:05:16Z</time>
      </trkpt>
      <trkpt lat="45.70167" lon="2.96097">
        <ele>996.54</ele>
        <time>2021-06-16T10:05:30Z</time>
      </trkpt>
      <trkpt lat="45.70166" lon="2.96088">
        <ele>996.06</ele>
        <time>2021-06-16T10:05:46Z</time>
      </trkpt>
      <trkpt lat="45.70168" lon="2.96084">
        <ele>996.54</ele>
        <time>2021-06-16T10:05:50Z</time>
      </trkpt>
      <trkpt lat="45.70169" lon="2.96082">
        <ele>995.58</ele>
        <time>2021-06-16T10:05:51Z</time>
      </trkpt>
      <trkpt lat="45.70169" lon="2.9608">
        <ele>996.06</ele>
        <time>2021-06-16T10:05:52Z</time>
      </trkpt>
      <trkpt lat="45.70181" lon="2.96058">
        <ele>996.06</ele>
        <time>2021-06-16T10:06:03Z</time>
      </trkpt>
      <trkpt lat="45.70199" lon="2.96033">
        <ele>997.02</ele>
        <time>2021-06-16T10:06:14Z</time>
      </trkpt>
      <trkpt lat="45.70215" lon="2.95999">
        <ele>997.51</ele>
        <time>2021-06-16T10:06:24Z</time>
      </trkpt>
      <trkpt lat="45.70222" lon="2.9598">
        <ele>997.99</ele>
        <time>2021-06-16T10:06:29Z</time>
      </trkpt>
      <trkpt lat="45.70228" lon="2.95919">
        <ele>997.02</ele>
        <time>2021-06-16T10:06:41Z</time>
      </trkpt>
      <trkpt lat="45.70254" lon="2.95888">
        <ele>996.54</ele>
        <time>2021-06-16T10:06:53Z</time>
      </trkpt>
      <trkpt lat="45.70287" lon="2.9588">
        <ele>997.02</ele>
        <time>2021-06-16T10:07:04Z</time>
      </trkpt>
      <trkpt lat="45.7031" lon="2.95846">
        <ele>997.02</ele>
        <time>2021-06-16T10:07:15Z</time>
      </trkpt>
      <trkpt lat="45.70335" lon="2.95803">
        <ele>997.51</ele>
        <time>2021-06-16T10:07:26Z</time>
      </trkpt>
      <trkpt lat="45.70358" lon="2.9575">
        <ele>998.47</ele>
        <time>2021-06-16T10:07:38Z</time>
      </trkpt>
      <trkpt lat="45.70373" lon="2.95691">
        <ele>999.91</ele>
        <time>2021-06-16T10:07:50Z</time>
      </trkpt>
      <trkpt lat="45.70404" lon="2.95641">
        <ele>1000.87</ele>
        <time>2021-06-16T10:08:03Z</time>
      </trkpt>
      <trkpt lat="45.70431" lon="2.95609">
        <ele>1001.83</ele>
        <time>2021-06-16T10:08:14Z</time>
      </trkpt>
      <trkpt lat="45.70442" lon="2.95582">
        <ele>1002.79</ele>
        <time>2021-06-16T10:08:22Z</time>
      </trkpt>
      <trkpt lat="45.70462" lon="2.9553">
        <ele>1005.2</ele>
        <time>2021-06-16T10:08:35Z</time>
      </trkpt>
      <trkpt lat="45.70469" lon="2.95515">
        <ele>1006.16</ele>
        <time>2021-06-16T10:08:40Z</time>
      </trkpt>
      <trkpt lat="45.7047" lon="2.95511">
        <ele>1006.16</ele>
        <time>2021-06-16T10:08:41Z</time>
      </trkpt>
      <trkpt lat="45.70471" lon="2.95507">
        <ele>1006.16</ele>
        <time>2021-06-16T10:08:42Z</time>
      </trkpt>
      <trkpt lat="45.70471" lon="2.95503">
        <ele>1006.16</ele>
        <time>2021-06-16T10:08:43Z</time>
      </trkpt>
      <trkpt lat="45.70471" lon="2.95499">
        <ele>1007.12</ele>
        <time>2021-06-16T10:08:44Z</time>
      </trkpt>
      <trkpt lat="45.70481" lon="2.95452">
        <ele>1008.56</ele>
        <time>2021-06-16T10:08:56Z</time>
      </trkpt>
      <trkpt lat="45.70497" lon="2.95418">
        <ele>1011.44</ele>
        <time>2021-06-16T10:09:08Z</time>
      </trkpt>
      <trkpt lat="45.70511" lon="2.95385">
        <ele>1013.37</ele>
        <time>2021-06-16T10:09:20Z</time>
      </trkpt>
      <trkpt lat="45.7052" lon="2.95365">
        <ele>1015.77</ele>
        <time>2021-06-16T10:09:29Z</time>
      </trkpt>
      <trkpt lat="45.70533" lon="2.9534">
        <ele>1019.13</ele>
        <time>2021-06-16T10:09:41Z</time>
      </trkpt>
      <trkpt lat="45.70547" lon="2.95322">
        <ele>1021.06</ele>
        <time>2021-06-16T10:09:54Z</time>
      </trkpt>
      <trkpt lat="45.70561" lon="2.95308">
        <ele>1023.46</ele>
        <time>2021-06-16T10:10:06Z</time>
      </trkpt>
      <trkpt lat="45.70569" lon="2.95303">
        <ele>1024.9</ele>
        <time>2021-06-16T10:10:16Z</time>
      </trkpt>
      <trkpt lat="45.70582" lon="2.95296">
        <ele>1026.34</ele>
        <time>2021-06-16T10:10:27Z</time>
      </trkpt>
      <trkpt lat="45.70586" lon="2.9529">
        <ele>1028.27</ele>
        <time>2021-06-16T10:10:33Z</time>
      </trkpt>
      <trkpt lat="45.70599" lon="2.9528">
        <ele>1029.71</ele>
        <time>2021-06-16T10:10:45Z</time>
      </trkpt>
      <trkpt lat="45.70606" lon="2.95272">
        <ele>1031.15</ele>
        <time>2021-06-16T10:10:51Z</time>
      </trkpt>
      <trkpt lat="45.7061" lon="2.95269">
        <ele>1032.59</ele>
        <time>2021-06-16T10:10:54Z</time>
      </trkpt>
      <trkpt lat="45.7061" lon="2.95268">
        <ele>1033.07</ele>
        <time>2021-06-16T10:11:14Z</time>
      </trkpt>
      <trkpt lat="45.70615" lon="2.95259">
        <ele>1034.04</ele>
        <time>2021-06-16T10:11:31Z</time>
      </trkpt>
      <trkpt lat="45.70622" lon="2.9525">
        <ele>1035</ele>
        <time>2021-06-16T10:11:44Z</time>
      </trkpt>
      <trkpt lat="45.70627" lon="2.95245">
        <ele>1035.96</ele>
        <time>2021-06-16T10:11:50Z</time>
      </trkpt>
      <trkpt lat="45.70637" lon="2.95227">
        <ele>1037.88</ele>
        <time>2021-06-16T10:12:07Z</time>
      </trkpt>
      <trkpt lat="45.70637" lon="2.95223">
        <ele>1037.88</ele>
        <time>2021-06-16T10:12:29Z</time>
      </trkpt>
      <trkpt lat="45.70654" lon="2.95198">
        <ele>1038.36</ele>
        <time>2021-06-16T10:12:41Z</time>
      </trkpt>
      <trkpt lat="45.70664" lon="2.95172">
        <ele>1040.28</ele>
        <time>2021-06-16T10:12:54Z</time>
      </trkpt>
      <trkpt lat="45.70665" lon="2.95165">
        <ele>1039.8</ele>
        <time>2021-06-16T10:12:59Z</time>
      </trkpt>
      <trkpt lat="45.70666" lon="2.95162">
        <ele>1039.8</ele>
        <time>2021-06-16T10:13:00Z</time>
      </trkpt>
      <trkpt lat="45.70673" lon="2.95117">
        <ele>1039.8</ele>
        <time>2021-06-16T10:13:12Z</time>
      </trkpt>
      <trkpt lat="45.70675" lon="2.95049">
        <ele>1039.8</ele>
        <time>2021-06-16T10:13:23Z</time>
      </trkpt>
      <trkpt lat="45.70681" lon="2.95014">
        <ele>1040.76</ele>
        <time>2021-06-16T10:13:29Z</time>
      </trkpt>
      <trkpt lat="45.70683" lon="2.95008">
        <ele>1040.76</ele>
        <time>2021-06-16T10:13:30Z</time>
      </trkpt>
      <trkpt lat="45.70684" lon="2.95002">
        <ele>1041.25</ele>
        <time>2021-06-16T10:13:31Z</time>
      </trkpt>
      <trkpt lat="45.70686" lon="2.94997">
        <ele>1040.28</ele>
        <time>2021-06-16T10:13:32Z</time>
      </trkpt>
      <trkpt lat="45.70687" lon="2.94994">
        <ele>1041.25</ele>
        <time>2021-06-16T10:13:33Z</time>
      </trkpt>
      <trkpt lat="45.70697" lon="2.94973">
        <ele>1043.65</ele>
        <time>2021-06-16T10:13:39Z</time>
      </trkpt>
      <trkpt lat="45.70714" lon="2.94934">
        <ele>1044.61</ele>
        <time>2021-06-16T10:13:50Z</time>
      </trkpt>
      <trkpt lat="45.70716" lon="2.94917">
        <ele>1045.57</ele>
        <time>2021-06-16T10:13:54Z</time>
      </trkpt>
      <trkpt lat="45.70733" lon="2.94875">
        <ele>1046.05</ele>
        <time>2021-06-16T10:14:03Z</time>
      </trkpt>
      <trkpt lat="45.7075" lon="2.94837">
        <ele>1045.57</ele>
        <time>2021-06-16T10:14:13Z</time>
      </trkpt>
      <trkpt lat="45.70756" lon="2.94826">
        <ele>1046.05</ele>
        <time>2021-06-16T10:14:16Z</time>
      </trkpt>
      <trkpt lat="45.70758" lon="2.94821">
        <ele>1045.57</ele>
        <time>2021-06-16T10:14:17Z</time>
      </trkpt>
      <trkpt lat="45.7076" lon="2.94816">
        <ele>1046.05</ele>
        <time>2021-06-16T10:14:18Z</time>
      </trkpt>
      <trkpt lat="45.70788" lon="2.9478">
        <ele>1047.49</ele>
        <time>2021-06-16T10:14:30Z</time>
      </trkpt>
      <trkpt lat="45.70817" lon="2.94736">
        <ele>1047.97</ele>
        <time>2021-06-16T10:14:41Z</time>
      </trkpt>
      <trkpt lat="45.70843" lon="2.947">
        <ele>1048.45</ele>
        <time>2021-06-16T10:14:51Z</time>
      </trkpt>
      <trkpt lat="45.70875" lon="2.94656">
        <ele>1049.42</ele>
        <time>2021-06-16T10:15:03Z</time>
      </trkpt>
      <trkpt lat="45.70896" lon="2.94624">
        <ele>1050.38</ele>
        <time>2021-06-16T10:15:12Z</time>
      </trkpt>
      <trkpt lat="45.7091" lon="2.94598">
        <ele>1049.9</ele>
        <time>2021-06-16T10:15:18Z</time>
      </trkpt>
      <trkpt lat="45.70913" lon="2.94593">
        <ele>1049.9</ele>
        <time>2021-06-16T10:15:19Z</time>
      </trkpt>
      <trkpt lat="45.70945" lon="2.94542">
        <ele>1050.86</ele>
        <time>2021-06-16T10:15:32Z</time>
      </trkpt>
      <trkpt lat="45.7095" lon="2.94533">
        <ele>1049.9</ele>
        <time>2021-06-16T10:15:34Z</time>
      </trkpt>
      <trkpt lat="45.70953" lon="2.94529">
        <ele>1050.38</ele>
        <time>2021-06-16T10:15:35Z</time>
      </trkpt>
      <trkpt lat="45.70987" lon="2.9446">
        <ele>1049.9</ele>
        <time>2021-06-16T10:15:49Z</time>
      </trkpt>
      <trkpt lat="45.71002" lon="2.94395">
        <ele>1048.45</ele>
        <time>2021-06-16T10:16:01Z</time>
      </trkpt>
      <trkpt lat="45.71009" lon="2.94371">
        <ele>1047.49</ele>
        <time>2021-06-16T10:16:06Z</time>
      </trkpt>
      <trkpt lat="45.71011" lon="2.94366">
        <ele>1047.49</ele>
        <time>2021-06-16T10:16:07Z</time>
      </trkpt>
      <trkpt lat="45.71037" lon="2.94325">
        <ele>1046.53</ele>
        <time>2021-06-16T10:16:17Z</time>
      </trkpt>
      <trkpt lat="45.71042" lon="2.94292">
        <ele>1046.53</ele>
        <time>2021-06-16T10:16:25Z</time>
      </trkpt>
      <trkpt lat="45.71014" lon="2.94248">
        <ele>1046.53</ele>
        <time>2021-06-16T10:16:37Z</time>
      </trkpt>
      <trkpt lat="45.71003" lon="2.94238">
        <ele>1046.05</ele>
        <time>2021-06-16T10:16:40Z</time>
      </trkpt>
      <trkpt lat="45.70956" lon="2.94188">
        <ele>1046.05</ele>
        <time>2021-06-16T10:16:55Z</time>
      </trkpt>
      <trkpt lat="45.70919" lon="2.94126">
        <ele>1047.97</ele>
        <time>2021-06-16T10:17:10Z</time>
      </trkpt>
      <trkpt lat="45.70877" lon="2.9407">
        <ele>1048.45</ele>
        <time>2021-06-16T10:17:26Z</time>
      </trkpt>
      <trkpt lat="45.7082" lon="2.94014">
        <ele>1047.49</ele>
        <time>2021-06-16T10:17:42Z</time>
      </trkpt>
      <trkpt lat="45.70771" lon="2.93947">
        <ele>1047.49</ele>
        <time>2021-06-16T10:17:58Z</time>
      </trkpt>
      <trkpt lat="45.70738" lon="2.939">
        <ele>1047.97</ele>
        <time>2021-06-16T10:18:10Z</time>
      </trkpt>
      <trkpt lat="45.70715" lon="2.93868">
        <ele>1047.97</ele>
        <time>2021-06-16T10:18:18Z</time>
      </trkpt>
      <trkpt lat="45.70709" lon="2.93859">
        <ele>1048.45</ele>
        <time>2021-06-16T10:18:20Z</time>
      </trkpt>
      <trkpt lat="45.70706" lon="2.93855">
        <ele>1047.97</ele>
        <time>2021-06-16T10:18:21Z</time>
      </trkpt>
      <trkpt lat="45.70672" lon="2.93844">
        <ele>1049.9</ele>
        <time>2021-06-16T10:18:32Z</time>
      </trkpt>
      <trkpt lat="45.70634" lon="2.93836">
        <ele>1047.97</ele>
        <time>2021-06-16T10:18:43Z</time>
      </trkpt>
      <trkpt lat="45.70594" lon="2.93829">
        <ele>1047.01</ele>
        <time>2021-06-16T10:18:53Z</time>
      </trkpt>
      <trkpt lat="45.7055" lon="2.93836">
        <ele>1047.01</ele>
        <time>2021-06-16T10:19:03Z</time>
      </trkpt>
      <trkpt lat="45.70504" lon="2.93843">
        <ele>1047.97</ele>
        <time>2021-06-16T10:19:13Z</time>
      </trkpt>
      <trkpt lat="45.70475" lon="2.93838">
        <ele>1047.97</ele>
        <time>2021-06-16T10:19:21Z</time>
      </trkpt>
      <trkpt lat="45.70473" lon="2.93838">
        <ele>1047.97</ele>
        <time>2021-06-16T10:19:22Z</time>
      </trkpt>
      <trkpt lat="45.7047" lon="2.93839">
        <ele>1047.97</ele>
        <time>2021-06-16T10:19:23Z</time>
      </trkpt>
      <trkpt lat="45.70466" lon="2.93839">
        <ele>1047.97</ele>
        <time>2021-06-16T10:19:24Z</time>
      </trkpt>
      <trkpt lat="45.70463" lon="2.93839">
        <ele>1047.49</ele>
        <time>2021-06-16T10:19:25Z</time>
      </trkpt>
      <trkpt lat="45.7046" lon="2.93838">
        <ele>1047.49</ele>
        <time>2021-06-16T10:19:26Z</time>
      </trkpt>
      <trkpt lat="45.70456" lon="2.93837">
        <ele>1047.97</ele>
        <time>2021-06-16T10:19:27Z</time>
      </trkpt>
      <trkpt lat="45.70453" lon="2.93837">
        <ele>1046.53</ele>
        <time>2021-06-16T10:19:28Z</time>
      </trkpt>
      <trkpt lat="45.7045" lon="2.93836">
        <ele>1047.01</ele>
        <time>2021-06-16T10:19:29Z</time>
      </trkpt>
      <trkpt lat="45.70446" lon="2.93835">
        <ele>1047.01</ele>
        <time>2021-06-16T10:19:30Z</time>
      </trkpt>
      <trkpt lat="45.70443" lon="2.93833">
        <ele>1046.53</ele>
        <time>2021-06-16T10:19:31Z</time>
      </trkpt>
      <trkpt lat="45.70439" lon="2.93832">
        <ele>1046.05</ele>
        <time>2021-06-16T10:19:32Z</time>
      </trkpt>
      <trkpt lat="45.70436" lon="2.9383">
        <ele>1046.53</ele>
        <time>2021-06-16T10:19:33Z</time>
      </trkpt>
      <trkpt lat="45.70433" lon="2.93829">
        <ele>1045.57</ele>
        <time>2021-06-16T10:19:34Z</time>
      </trkpt>
      <trkpt lat="45.70429" lon="2.93828">
        <ele>1045.09</ele>
        <time>2021-06-16T10:19:35Z</time>
      </trkpt>
      <trkpt lat="45.70425" lon="2.93827">
        <ele>1044.61</ele>
        <time>2021-06-16T10:19:36Z</time>
      </trkpt>
      <trkpt lat="45.7042" lon="2.93827">
        <ele>1044.13</ele>
        <time>2021-06-16T10:19:37Z</time>
      </trkpt>
      <trkpt lat="45.70415" lon="2.93827">
        <ele>1044.13</ele>
        <time>2021-06-16T10:19:38Z</time>
      </trkpt>
      <trkpt lat="45.70411" lon="2.93827">
        <ele>1043.65</ele>
        <time>2021-06-16T10:19:39Z</time>
      </trkpt>
      <trkpt lat="45.70405" lon="2.93827">
        <ele>1043.65</ele>
        <time>2021-06-16T10:19:40Z</time>
      </trkpt>
      <trkpt lat="45.70385" lon="2.93827">
        <ele>1042.69</ele>
        <time>2021-06-16T10:19:44Z</time>
      </trkpt>
      <trkpt lat="45.70379" lon="2.93826">
        <ele>1042.21</ele>
        <time>2021-06-16T10:19:45Z</time>
      </trkpt>
      <trkpt lat="45.7036" lon="2.93826">
        <ele>1041.73</ele>
        <time>2021-06-16T10:19:48Z</time>
      </trkpt>
      <trkpt lat="45.70354" lon="2.93827">
        <ele>1041.25</ele>
        <time>2021-06-16T10:19:49Z</time>
      </trkpt>
      <trkpt lat="45.70317" lon="2.93831">
        <ele>1040.76</ele>
        <time>2021-06-16T10:19:56Z</time>
      </trkpt>
      <trkpt lat="45.70311" lon="2.93832">
        <ele>1040.76</ele>
        <time>2021-06-16T10:19:57Z</time>
      </trkpt>
      <trkpt lat="45.70306" lon="2.93834">
        <ele>1039.8</ele>
        <time>2021-06-16T10:19:58Z</time>
      </trkpt>
      <trkpt lat="45.70294" lon="2.93837">
        <ele>1040.28</ele>
        <time>2021-06-16T10:20:00Z</time>
      </trkpt>
      <trkpt lat="45.70272" lon="2.93847">
        <ele>1039.8</ele>
        <time>2021-06-16T10:20:04Z</time>
      </trkpt>
      <trkpt lat="45.70262" lon="2.93851">
        <ele>1038.84</ele>
        <time>2021-06-16T10:20:06Z</time>
      </trkpt>
      <trkpt lat="45.70244" lon="2.93869">
        <ele>1037.88</ele>
        <time>2021-06-16T10:20:11Z</time>
      </trkpt>
      <trkpt lat="45.70241" lon="2.93874">
        <ele>1037.4</ele>
        <time>2021-06-16T10:20:12Z</time>
      </trkpt>
      <trkpt lat="45.70238" lon="2.9388">
        <ele>1037.4</ele>
        <time>2021-06-16T10:20:13Z</time>
      </trkpt>
      <trkpt lat="45.70218" lon="2.93912">
        <ele>1035.96</ele>
        <time>2021-06-16T10:20:18Z</time>
      </trkpt>
      <trkpt lat="45.70205" lon="2.93938">
        <ele>1034.04</ele>
        <time>2021-06-16T10:20:22Z</time>
      </trkpt>
      <trkpt lat="45.70201" lon="2.93943">
        <ele>1033.55</ele>
        <time>2021-06-16T10:20:23Z</time>
      </trkpt>
      <trkpt lat="45.70197" lon="2.9395">
        <ele>1034.04</ele>
        <time>2021-06-16T10:20:24Z</time>
      </trkpt>
      <trkpt lat="45.70193" lon="2.93957">
        <ele>1033.07</ele>
        <time>2021-06-16T10:20:25Z</time>
      </trkpt>
      <trkpt lat="45.70189" lon="2.93963">
        <ele>1033.07</ele>
        <time>2021-06-16T10:20:26Z</time>
      </trkpt>
      <trkpt lat="45.70166" lon="2.93991">
        <ele>1032.11</ele>
        <time>2021-06-16T10:20:31Z</time>
      </trkpt>
      <trkpt lat="45.70144" lon="2.94013">
        <ele>1031.63</ele>
        <time>2021-06-16T10:20:36Z</time>
      </trkpt>
      <trkpt lat="45.70135" lon="2.9402">
        <ele>1031.15</ele>
        <time>2021-06-16T10:20:38Z</time>
      </trkpt>
      <trkpt lat="45.70131" lon="2.94024">
        <ele>1031.63</ele>
        <time>2021-06-16T10:20:39Z</time>
      </trkpt>
      <trkpt lat="45.70098" lon="2.94056">
        <ele>1030.67</ele>
        <time>2021-06-16T10:20:49Z</time>
      </trkpt>
      <trkpt lat="45.70085" lon="2.94064">
        <ele>1030.67</ele>
        <time>2021-06-16T10:20:53Z</time>
      </trkpt>
      <trkpt lat="45.70082" lon="2.94067">
        <ele>1030.67</ele>
        <time>2021-06-16T10:20:54Z</time>
      </trkpt>
      <trkpt lat="45.70079" lon="2.9407">
        <ele>1030.67</ele>
        <time>2021-06-16T10:20:55Z</time>
      </trkpt>
      <trkpt lat="45.70064" lon="2.94081">
        <ele>1030.19</ele>
        <time>2021-06-16T10:21:00Z</time>
      </trkpt>
      <trkpt lat="45.7001" lon="2.9409">
        <ele>1029.23</ele>
        <time>2021-06-16T10:21:14Z</time>
      </trkpt>
      <trkpt lat="45.69939" lon="2.94103">
        <ele>1026.34</ele>
        <time>2021-06-16T10:21:27Z</time>
      </trkpt>
      <trkpt lat="45.69935" lon="2.94102">
        <ele>1025.86</ele>
        <time>2021-06-16T10:21:28Z</time>
      </trkpt>
      <trkpt lat="45.69923" lon="2.94103">
        <ele>1025.86</ele>
        <time>2021-06-16T10:21:30Z</time>
      </trkpt>
      <trkpt lat="45.69913" lon="2.94106">
        <ele>1024.42</ele>
        <time>2021-06-16T10:21:32Z</time>
      </trkpt>
      <trkpt lat="45.69907" lon="2.94109">
        <ele>1024.42</ele>
        <time>2021-06-16T10:21:33Z</time>
      </trkpt>
      <trkpt lat="45.69876" lon="2.94117">
        <ele>1021.54</ele>
        <time>2021-06-16T10:21:41Z</time>
      </trkpt>
      <trkpt lat="45.69844" lon="2.94123">
        <ele>1018.17</ele>
        <time>2021-06-16T10:21:52Z</time>
      </trkpt>
      <trkpt lat="45.69841" lon="2.94124">
        <ele>1017.69</ele>
        <time>2021-06-16T10:21:53Z</time>
      </trkpt>
      <trkpt lat="45.69838" lon="2.94125">
        <ele>1017.69</ele>
        <time>2021-06-16T10:21:54Z</time>
      </trkpt>
      <trkpt lat="45.69835" lon="2.94128">
        <ele>1017.21</ele>
        <time>2021-06-16T10:21:55Z</time>
      </trkpt>
      <trkpt lat="45.69832" lon="2.9413">
        <ele>1016.73</ele>
        <time>2021-06-16T10:21:56Z</time>
      </trkpt>
      <trkpt lat="45.69829" lon="2.94131">
        <ele>1016.73</ele>
        <time>2021-06-16T10:21:57Z</time>
      </trkpt>
      <trkpt lat="45.69827" lon="2.94132">
        <ele>1016.25</ele>
        <time>2021-06-16T10:21:58Z</time>
      </trkpt>
      <trkpt lat="45.69823" lon="2.94132">
        <ele>1016.25</ele>
        <time>2021-06-16T10:21:59Z</time>
      </trkpt>
      <trkpt lat="45.6982" lon="2.94134">
        <ele>1015.77</ele>
        <time>2021-06-16T10:22:00Z</time>
      </trkpt>
      <trkpt lat="45.69817" lon="2.94135">
        <ele>1015.29</ele>
        <time>2021-06-16T10:22:01Z</time>
      </trkpt>
      <trkpt lat="45.69812" lon="2.94138">
        <ele>1015.29</ele>
        <time>2021-06-16T10:22:02Z</time>
      </trkpt>
      <trkpt lat="45.69788" lon="2.94151">
        <ele>1013.37</ele>
        <time>2021-06-16T10:22:07Z</time>
      </trkpt>
      <trkpt lat="45.69783" lon="2.94153">
        <ele>1012.89</ele>
        <time>2021-06-16T10:22:08Z</time>
      </trkpt>
      <trkpt lat="45.69777" lon="2.94153">
        <ele>1013.37</ele>
        <time>2021-06-16T10:22:09Z</time>
      </trkpt>
      <trkpt lat="45.69771" lon="2.94153">
        <ele>1012.89</ele>
        <time>2021-06-16T10:22:10Z</time>
      </trkpt>
      <trkpt lat="45.69764" lon="2.94152">
        <ele>1012.89</ele>
        <time>2021-06-16T10:22:11Z</time>
      </trkpt>
      <trkpt lat="45.69758" lon="2.94151">
        <ele>1012.41</ele>
        <time>2021-06-16T10:22:12Z</time>
      </trkpt>
      <trkpt lat="45.69749" lon="2.94152">
        <ele>1012.41</ele>
        <time>2021-06-16T10:22:14Z</time>
      </trkpt>
      <trkpt lat="45.69736" lon="2.94152">
        <ele>1012.41</ele>
        <time>2021-06-16T10:22:17Z</time>
      </trkpt>
      <trkpt lat="45.69692" lon="2.94149">
        <ele>1011.93</ele>
        <time>2021-06-16T10:22:27Z</time>
      </trkpt>
      <trkpt lat="45.69644" lon="2.9414">
        <ele>1010.96</ele>
        <time>2021-06-16T10:22:38Z</time>
      </trkpt>
      <trkpt lat="45.69598" lon="2.94131">
        <ele>1009.52</ele>
        <time>2021-06-16T10:22:48Z</time>
      </trkpt>
      <trkpt lat="45.69594" lon="2.94131">
        <ele>1009.04</ele>
        <time>2021-06-16T10:22:49Z</time>
      </trkpt>
      <trkpt lat="45.69539" lon="2.94123">
        <ele>1008.56</ele>
        <time>2021-06-16T10:23:02Z</time>
      </trkpt>
      <trkpt lat="45.69493" lon="2.94106">
        <ele>1008.56</ele>
        <time>2021-06-16T10:23:13Z</time>
      </trkpt>
      <trkpt lat="45.69482" lon="2.94108">
        <ele>1008.56</ele>
        <time>2021-06-16T10:23:17Z</time>
      </trkpt>
      <trkpt lat="45.6948" lon="2.9411">
        <ele>1008.56</ele>
        <time>2021-06-16T10:23:18Z</time>
      </trkpt>
      <trkpt lat="45.69479" lon="2.94112">
        <ele>1008.08</ele>
        <time>2021-06-16T10:23:30Z</time>
      </trkpt>
      <trkpt lat="45.69479" lon="2.94112">
        <ele>1009.04</ele>
        <time>2021-06-16T10:23:32Z</time>
      </trkpt>
      <trkpt lat="45.69488" lon="2.94143">
        <ele>1008.56</ele>
        <time>2021-06-16T10:23:41Z</time>
      </trkpt>
      <trkpt lat="45.6949" lon="2.94147">
        <ele>1008.56</ele>
        <time>2021-06-16T10:23:42Z</time>
      </trkpt>
      <trkpt lat="45.69492" lon="2.94152">
        <ele>1009.04</ele>
        <time>2021-06-16T10:23:43Z</time>
      </trkpt>
      <trkpt lat="45.69493" lon="2.94156">
        <ele>1009.04</ele>
        <time>2021-06-16T10:23:44Z</time>
      </trkpt>
      <trkpt lat="45.69495" lon="2.9416">
        <ele>1009.04</ele>
        <time>2021-06-16T10:23:45Z</time>
      </trkpt>
      <trkpt lat="45.69517" lon="2.94208">
        <ele>1011.93</ele>
        <time>2021-06-16T10:23:57Z</time>
      </trkpt>
      <trkpt lat="45.69535" lon="2.94248">
        <ele>1013.85</ele>
        <time>2021-06-16T10:24:10Z</time>
      </trkpt>
      <trkpt lat="45.69557" lon="2.94292">
        <ele>1013.37</ele>
        <time>2021-06-16T10:24:22Z</time>
      </trkpt>
      <trkpt lat="45.69581" lon="2.94335">
        <ele>1011.93</ele>
        <time>2021-06-16T10:24:31Z</time>
      </trkpt>
      <trkpt lat="45.69584" lon="2.9434">
        <ele>1012.41</ele>
        <time>2021-06-16T10:24:32Z</time>
      </trkpt>
      <trkpt lat="45.69622" lon="2.94414">
        <ele>1010</ele>
        <time>2021-06-16T10:24:45Z</time>
      </trkpt>
      <trkpt lat="45.69665" lon="2.94505">
        <ele>1008.08</ele>
        <time>2021-06-16T10:25:01Z</time>
      </trkpt>
      <trkpt lat="45.69679" lon="2.94533">
        <ele>1007.12</ele>
        <time>2021-06-16T10:25:06Z</time>
      </trkpt>
      <trkpt lat="45.69697" lon="2.94578">
        <ele>1005.68</ele>
        <time>2021-06-16T10:25:13Z</time>
      </trkpt>
      <trkpt lat="45.69699" lon="2.94584">
        <ele>1005.68</ele>
        <time>2021-06-16T10:25:14Z</time>
      </trkpt>
      <trkpt lat="45.69702" lon="2.9459">
        <ele>1005.2</ele>
        <time>2021-06-16T10:25:15Z</time>
      </trkpt>
      <trkpt lat="45.69704" lon="2.94596">
        <ele>1005.2</ele>
        <time>2021-06-16T10:25:16Z</time>
      </trkpt>
      <trkpt lat="45.69706" lon="2.94602">
        <ele>1005.2</ele>
        <time>2021-06-16T10:25:17Z</time>
      </trkpt>
      <trkpt lat="45.69708" lon="2.94608">
        <ele>1004.72</ele>
        <time>2021-06-16T10:25:18Z</time>
      </trkpt>
      <trkpt lat="45.69711" lon="2.94614">
        <ele>1004.72</ele>
        <time>2021-06-16T10:25:19Z</time>
      </trkpt>
      <trkpt lat="45.69713" lon="2.9462">
        <ele>1004.23</ele>
        <time>2021-06-16T10:25:20Z</time>
      </trkpt>
      <trkpt lat="45.69717" lon="2.94627">
        <ele>1003.27</ele>
        <time>2021-06-16T10:25:21Z</time>
      </trkpt>
      <trkpt lat="45.69749" lon="2.94701">
        <ele>1001.83</ele>
        <time>2021-06-16T10:25:31Z</time>
      </trkpt>
      <trkpt lat="45.69752" lon="2.94715">
        <ele>1001.35</ele>
        <time>2021-06-16T10:25:33Z</time>
      </trkpt>
      <trkpt lat="45.69753" lon="2.94722">
        <ele>1001.35</ele>
        <time>2021-06-16T10:25:34Z</time>
      </trkpt>
      <trkpt lat="45.69752" lon="2.94729">
        <ele>1001.35</ele>
        <time>2021-06-16T10:25:35Z</time>
      </trkpt>
      <trkpt lat="45.6975" lon="2.94735">
        <ele>1001.35</ele>
        <time>2021-06-16T10:25:36Z</time>
      </trkpt>
      <trkpt lat="45.69748" lon="2.94741">
        <ele>1000.39</ele>
        <time>2021-06-16T10:25:37Z</time>
      </trkpt>
      <trkpt lat="45.69744" lon="2.94746">
        <ele>1000.87</ele>
        <time>2021-06-16T10:25:38Z</time>
      </trkpt>
      <trkpt lat="45.69741" lon="2.94751">
        <ele>1000.87</ele>
        <time>2021-06-16T10:25:39Z</time>
      </trkpt>
      <trkpt lat="45.69737" lon="2.94757">
        <ele>1000.87</ele>
        <time>2021-06-16T10:25:40Z</time>
      </trkpt>
      <trkpt lat="45.69705" lon="2.94821">
        <ele>999.91</ele>
        <time>2021-06-16T10:25:52Z</time>
      </trkpt>
      <trkpt lat="45.69694" lon="2.94836">
        <ele>998.95</ele>
        <time>2021-06-16T10:25:56Z</time>
      </trkpt>
      <trkpt lat="45.69683" lon="2.9486">
        <ele>998.47</ele>
        <time>2021-06-16T10:26:00Z</time>
      </trkpt>
      <trkpt lat="45.69672" lon="2.94876">
        <ele>997.99</ele>
        <time>2021-06-16T10:26:03Z</time>
      </trkpt>
      <trkpt lat="45.6966" lon="2.94905">
        <ele>997.02</ele>
        <time>2021-06-16T10:26:08Z</time>
      </trkpt>
      <trkpt lat="45.69657" lon="2.94912">
        <ele>997.02</ele>
        <time>2021-06-16T10:26:09Z</time>
      </trkpt>
      <trkpt lat="45.6964" lon="2.94951">
        <ele>997.02</ele>
        <time>2021-06-16T10:26:15Z</time>
      </trkpt>
      <trkpt lat="45.69624" lon="2.94979">
        <ele>996.54</ele>
        <time>2021-06-16T10:26:20Z</time>
      </trkpt>
      <trkpt lat="45.69617" lon="2.94996">
        <ele>996.06</ele>
        <time>2021-06-16T10:26:23Z</time>
      </trkpt>
      <trkpt lat="45.69615" lon="2.95002">
        <ele>996.06</ele>
        <time>2021-06-16T10:26:24Z</time>
      </trkpt>
      <trkpt lat="45.69598" lon="2.95049">
        <ele>993.66</ele>
        <time>2021-06-16T10:26:32Z</time>
      </trkpt>
      <trkpt lat="45.69597" lon="2.95057">
        <ele>993.66</ele>
        <time>2021-06-16T10:26:33Z</time>
      </trkpt>
      <trkpt lat="45.69593" lon="2.95074">
        <ele>992.22</ele>
        <time>2021-06-16T10:26:35Z</time>
      </trkpt>
      <trkpt lat="45.6959" lon="2.95084">
        <ele>992.22</ele>
        <time>2021-06-16T10:26:36Z</time>
      </trkpt>
      <trkpt lat="45.69587" lon="2.95093">
        <ele>992.22</ele>
        <time>2021-06-16T10:26:37Z</time>
      </trkpt>
      <trkpt lat="45.69584" lon="2.95101">
        <ele>991.26</ele>
        <time>2021-06-16T10:26:38Z</time>
      </trkpt>
      <trkpt lat="45.69581" lon="2.95108">
        <ele>990.78</ele>
        <time>2021-06-16T10:26:39Z</time>
      </trkpt>
      <trkpt lat="45.69577" lon="2.95116">
        <ele>989.81</ele>
        <time>2021-06-16T10:26:40Z</time>
      </trkpt>
      <trkpt lat="45.69572" lon="2.95124">
        <ele>989.81</ele>
        <time>2021-06-16T10:26:41Z</time>
      </trkpt>
      <trkpt lat="45.69566" lon="2.9513">
        <ele>988.85</ele>
        <time>2021-06-16T10:26:42Z</time>
      </trkpt>
      <trkpt lat="45.6956" lon="2.95137">
        <ele>988.85</ele>
        <time>2021-06-16T10:26:43Z</time>
      </trkpt>
      <trkpt lat="45.69554" lon="2.95145">
        <ele>988.37</ele>
        <time>2021-06-16T10:26:44Z</time>
      </trkpt>
      <trkpt lat="45.69549" lon="2.95153">
        <ele>987.41</ele>
        <time>2021-06-16T10:26:45Z</time>
      </trkpt>
      <trkpt lat="45.69544" lon="2.9516">
        <ele>987.41</ele>
        <time>2021-06-16T10:26:46Z</time>
      </trkpt>
      <trkpt lat="45.69541" lon="2.95168">
        <ele>987.41</ele>
        <time>2021-06-16T10:26:47Z</time>
      </trkpt>
      <trkpt lat="45.69538" lon="2.95176">
        <ele>986.93</ele>
        <time>2021-06-16T10:26:48Z</time>
      </trkpt>
      <trkpt lat="45.6953" lon="2.95199">
        <ele>985.49</ele>
        <time>2021-06-16T10:26:51Z</time>
      </trkpt>
      <trkpt lat="45.69525" lon="2.95217">
        <ele>984.53</ele>
        <time>2021-06-16T10:26:53Z</time>
      </trkpt>
      <trkpt lat="45.69522" lon="2.95226">
        <ele>984.05</ele>
        <time>2021-06-16T10:26:54Z</time>
      </trkpt>
      <trkpt lat="45.69509" lon="2.95261">
        <ele>982.6</ele>
        <time>2021-06-16T10:26:58Z</time>
      </trkpt>
      <trkpt lat="45.69498" lon="2.95281">
        <ele>982.6</ele>
        <time>2021-06-16T10:27:01Z</time>
      </trkpt>
      <trkpt lat="45.69488" lon="2.95305">
        <ele>980.68</ele>
        <time>2021-06-16T10:27:05Z</time>
      </trkpt>
      <trkpt lat="45.6948" lon="2.95323">
        <ele>979.72</ele>
        <time>2021-06-16T10:27:11Z</time>
      </trkpt>
      <trkpt lat="45.69478" lon="2.95325">
        <ele>979.72</ele>
        <time>2021-06-16T10:27:12Z</time>
      </trkpt>
      <trkpt lat="45.69477" lon="2.95327">
        <ele>979.24</ele>
        <time>2021-06-16T10:27:13Z</time>
      </trkpt>
      <trkpt lat="45.69476" lon="2.95329">
        <ele>979.72</ele>
        <time>2021-06-16T10:27:14Z</time>
      </trkpt>
      <trkpt lat="45.69475" lon="2.95332">
        <ele>980.2</ele>
        <time>2021-06-16T10:27:15Z</time>
      </trkpt>
      <trkpt lat="45.69474" lon="2.95336">
        <ele>980.2</ele>
        <time>2021-06-16T10:27:16Z</time>
      </trkpt>
      <trkpt lat="45.69473" lon="2.95339">
        <ele>980.2</ele>
        <time>2021-06-16T10:27:17Z</time>
      </trkpt>
      <trkpt lat="45.69471" lon="2.95342">
        <ele>979.24</ele>
        <time>2021-06-16T10:27:18Z</time>
      </trkpt>
      <trkpt lat="45.6947" lon="2.95345">
        <ele>978.76</ele>
        <time>2021-06-16T10:27:19Z</time>
      </trkpt>
      <trkpt lat="45.69468" lon="2.95346">
        <ele>978.76</ele>
        <time>2021-06-16T10:27:20Z</time>
      </trkpt>
      <trkpt lat="45.69468" lon="2.95347">
        <ele>979.24</ele>
        <time>2021-06-16T10:27:25Z</time>
      </trkpt>
      <trkpt lat="45.69466" lon="2.95346">
        <ele>979.24</ele>
        <time>2021-06-16T10:27:26Z</time>
      </trkpt>
      <trkpt lat="45.69464" lon="2.95345">
        <ele>978.28</ele>
        <time>2021-06-16T10:27:27Z</time>
      </trkpt>
      <trkpt lat="45.69461" lon="2.95342">
        <ele>978.76</ele>
        <time>2021-06-16T10:27:28Z</time>
      </trkpt>
      <trkpt lat="45.69459" lon="2.95338">
        <ele>978.76</ele>
        <time>2021-06-16T10:27:29Z</time>
      </trkpt>
      <trkpt lat="45.69456" lon="2.95335">
        <ele>979.24</ele>
        <time>2021-06-16T10:27:30Z</time>
      </trkpt>
      <trkpt lat="45.69454" lon="2.95331">
        <ele>978.28</ele>
        <time>2021-06-16T10:27:31Z</time>
      </trkpt>
      <trkpt lat="45.69451" lon="2.95327">
        <ele>978.76</ele>
        <time>2021-06-16T10:27:32Z</time>
      </trkpt>
      <trkpt lat="45.694" lon="2.95255">
        <ele>976.84</ele>
        <time>2021-06-16T10:27:48Z</time>
      </trkpt>
      <trkpt lat="45.69356" lon="2.95192">
        <ele>976.84</ele>
        <time>2021-06-16T10:28:03Z</time>
      </trkpt>
      <trkpt lat="45.69337" lon="2.95165">
        <ele>977.32</ele>
        <time>2021-06-16T10:28:09Z</time>
      </trkpt>
      <trkpt lat="45.69316" lon="2.95135">
        <ele>976.84</ele>
        <time>2021-06-16T10:28:16Z</time>
      </trkpt>
      <trkpt lat="45.69312" lon="2.95132">
        <ele>977.8</ele>
        <time>2021-06-16T10:28:17Z</time>
      </trkpt>
      <trkpt lat="45.69305" lon="2.95126">
        <ele>977.32</ele>
        <time>2021-06-16T10:28:19Z</time>
      </trkpt>
      <trkpt lat="45.69301" lon="2.95123">
        <ele>977.8</ele>
        <time>2021-06-16T10:28:20Z</time>
      </trkpt>
      <trkpt lat="45.69297" lon="2.95123">
        <ele>977.32</ele>
        <time>2021-06-16T10:28:21Z</time>
      </trkpt>
      <trkpt lat="45.69292" lon="2.95122">
        <ele>976.84</ele>
        <time>2021-06-16T10:28:22Z</time>
      </trkpt>
      <trkpt lat="45.69287" lon="2.95122">
        <ele>976.36</ele>
        <time>2021-06-16T10:28:23Z</time>
      </trkpt>
      <trkpt lat="45.69282" lon="2.95121">
        <ele>975.39</ele>
        <time>2021-06-16T10:28:24Z</time>
      </trkpt>
      <trkpt lat="45.69276" lon="2.9512">
        <ele>974.91</ele>
        <time>2021-06-16T10:28:25Z</time>
      </trkpt>
      <trkpt lat="45.69222" lon="2.95113">
        <ele>972.03</ele>
        <time>2021-06-16T10:28:34Z</time>
      </trkpt>
      <trkpt lat="45.69215" lon="2.95111">
        <ele>971.55</ele>
        <time>2021-06-16T10:28:35Z</time>
      </trkpt>
      <trkpt lat="45.69171" lon="2.95108">
        <ele>968.18</ele>
        <time>2021-06-16T10:28:41Z</time>
      </trkpt>
      <trkpt lat="45.69132" lon="2.95109">
        <ele>968.18</ele>
        <time>2021-06-16T10:28:46Z</time>
      </trkpt>
      <trkpt lat="45.69123" lon="2.95109">
        <ele>967.7</ele>
        <time>2021-06-16T10:28:47Z</time>
      </trkpt>
      <trkpt lat="45.69065" lon="2.95104">
        <ele>967.22</ele>
        <time>2021-06-16T10:28:56Z</time>
      </trkpt>
      <trkpt lat="45.69053" lon="2.95105">
        <ele>967.22</ele>
        <time>2021-06-16T10:28:58Z</time>
      </trkpt>
      <trkpt lat="45.69043" lon="2.95109">
        <ele>966.74</ele>
        <time>2021-06-16T10:29:00Z</time>
      </trkpt>
      <trkpt lat="45.69038" lon="2.95113">
        <ele>966.26</ele>
        <time>2021-06-16T10:29:01Z</time>
      </trkpt>
      <trkpt lat="45.69003" lon="2.95132">
        <ele>965.78</ele>
        <time>2021-06-16T10:29:11Z</time>
      </trkpt>
      <trkpt lat="45.68978" lon="2.9512">
        <ele>965.78</ele>
        <time>2021-06-16T10:29:18Z</time>
      </trkpt>
      <trkpt lat="45.68932" lon="2.9511">
        <ele>966.26</ele>
        <time>2021-06-16T10:29:29Z</time>
      </trkpt>
      <trkpt lat="45.68929" lon="2.95111">
        <ele>966.26</ele>
        <time>2021-06-16T10:29:30Z</time>
      </trkpt>
      <trkpt lat="45.68925" lon="2.95112">
        <ele>966.26</ele>
        <time>2021-06-16T10:29:31Z</time>
      </trkpt>
      <trkpt lat="45.68912" lon="2.95117">
        <ele>965.78</ele>
        <time>2021-06-16T10:29:34Z</time>
      </trkpt>
      <trkpt lat="45.68907" lon="2.95118">
        <ele>966.26</ele>
        <time>2021-06-16T10:29:35Z</time>
      </trkpt>
      <trkpt lat="45.68873" lon="2.95126">
        <ele>965.78</ele>
        <time>2021-06-16T10:29:42Z</time>
      </trkpt>
      <trkpt lat="45.68868" lon="2.95126">
        <ele>965.78</ele>
        <time>2021-06-16T10:29:43Z</time>
      </trkpt>
      <trkpt lat="45.68864" lon="2.95124">
        <ele>965.78</ele>
        <time>2021-06-16T10:29:44Z</time>
      </trkpt>
      <trkpt lat="45.68848" lon="2.95122">
        <ele>965.3</ele>
        <time>2021-06-16T10:29:47Z</time>
      </trkpt>
      <trkpt lat="45.68843" lon="2.95121">
        <ele>965.3</ele>
        <time>2021-06-16T10:29:48Z</time>
      </trkpt>
      <trkpt lat="45.68839" lon="2.95121">
        <ele>965.3</ele>
        <time>2021-06-16T10:29:49Z</time>
      </trkpt>
      <trkpt lat="45.68803" lon="2.9512">
        <ele>964.34</ele>
        <time>2021-06-16T10:29:56Z</time>
      </trkpt>
      <trkpt lat="45.68793" lon="2.95122">
        <ele>963.86</ele>
        <time>2021-06-16T10:29:58Z</time>
      </trkpt>
      <trkpt lat="45.68788" lon="2.95123">
        <ele>963.86</ele>
        <time>2021-06-16T10:29:59Z</time>
      </trkpt>
      <trkpt lat="45.68784" lon="2.95124">
        <ele>963.86</ele>
        <time>2021-06-16T10:30:00Z</time>
      </trkpt>
      <trkpt lat="45.68779" lon="2.95125">
        <ele>964.34</ele>
        <time>2021-06-16T10:30:01Z</time>
      </trkpt>
      <trkpt lat="45.68775" lon="2.95126">
        <ele>964.34</ele>
        <time>2021-06-16T10:30:02Z</time>
      </trkpt>
      <trkpt lat="45.68771" lon="2.95128">
        <ele>963.86</ele>
        <time>2021-06-16T10:30:03Z</time>
      </trkpt>
      <trkpt lat="45.68767" lon="2.95131">
        <ele>964.34</ele>
        <time>2021-06-16T10:30:04Z</time>
      </trkpt>
      <trkpt lat="45.68763" lon="2.95134">
        <ele>964.34</ele>
        <time>2021-06-16T10:30:05Z</time>
      </trkpt>
      <trkpt lat="45.68753" lon="2.9514">
        <ele>964.34</ele>
        <time>2021-06-16T10:30:08Z</time>
      </trkpt>
      <trkpt lat="45.68749" lon="2.95142">
        <ele>963.86</ele>
        <time>2021-06-16T10:30:09Z</time>
      </trkpt>
      <trkpt lat="45.68744" lon="2.95143">
        <ele>963.38</ele>
        <time>2021-06-16T10:30:10Z</time>
      </trkpt>
      <trkpt lat="45.6873" lon="2.95145">
        <ele>962.9</ele>
        <time>2021-06-16T10:30:13Z</time>
      </trkpt>
      <trkpt lat="45.68725" lon="2.95146">
        <ele>962.42</ele>
        <time>2021-06-16T10:30:14Z</time>
      </trkpt>
      <trkpt lat="45.68721" lon="2.95148">
        <ele>962.42</ele>
        <time>2021-06-16T10:30:15Z</time>
      </trkpt>
      <trkpt lat="45.68717" lon="2.9515">
        <ele>962.42</ele>
        <time>2021-06-16T10:30:16Z</time>
      </trkpt>
      <trkpt lat="45.68712" lon="2.95153">
        <ele>962.42</ele>
        <time>2021-06-16T10:30:17Z</time>
      </trkpt>
      <trkpt lat="45.68709" lon="2.95157">
        <ele>962.42</ele>
        <time>2021-06-16T10:30:18Z</time>
      </trkpt>
      <trkpt lat="45.68705" lon="2.9516">
        <ele>962.42</ele>
        <time>2021-06-16T10:30:19Z</time>
      </trkpt>
      <trkpt lat="45.68702" lon="2.95164">
        <ele>961.94</ele>
        <time>2021-06-16T10:30:20Z</time>
      </trkpt>
      <trkpt lat="45.68696" lon="2.95172">
        <ele>961.94</ele>
        <time>2021-06-16T10:30:22Z</time>
      </trkpt>
      <trkpt lat="45.68692" lon="2.95176">
        <ele>961.46</ele>
        <time>2021-06-16T10:30:23Z</time>
      </trkpt>
      <trkpt lat="45.68689" lon="2.95179">
        <ele>961.46</ele>
        <time>2021-06-16T10:30:24Z</time>
      </trkpt>
      <trkpt lat="45.68657" lon="2.95226">
        <ele>961.94</ele>
        <time>2021-06-16T10:30:36Z</time>
      </trkpt>
      <trkpt lat="45.68656" lon="2.95275">
        <ele>960.98</ele>
        <time>2021-06-16T10:30:44Z</time>
      </trkpt>
      <trkpt lat="45.68656" lon="2.95282">
        <ele>961.46</ele>
        <time>2021-06-16T10:30:45Z</time>
      </trkpt>
      <trkpt lat="45.68657" lon="2.95288">
        <ele>961.46</ele>
        <time>2021-06-16T10:30:46Z</time>
      </trkpt>
      <trkpt lat="45.68655" lon="2.95321">
        <ele>961.94</ele>
        <time>2021-06-16T10:30:52Z</time>
      </trkpt>
      <trkpt lat="45.68652" lon="2.95376">
        <ele>962.42</ele>
        <time>2021-06-16T10:31:02Z</time>
      </trkpt>
      <trkpt lat="45.68652" lon="2.95414">
        <ele>961.46</ele>
        <time>2021-06-16T10:31:08Z</time>
      </trkpt>
      <trkpt lat="45.6865" lon="2.9542">
        <ele>961.46</ele>
        <time>2021-06-16T10:31:09Z</time>
      </trkpt>
      <trkpt lat="45.68647" lon="2.95427">
        <ele>960.98</ele>
        <time>2021-06-16T10:31:10Z</time>
      </trkpt>
      <trkpt lat="45.68644" lon="2.95432">
        <ele>961.94</ele>
        <time>2021-06-16T10:31:11Z</time>
      </trkpt>
      <trkpt lat="45.6864" lon="2.95435">
        <ele>961.94</ele>
        <time>2021-06-16T10:31:12Z</time>
      </trkpt>
      <trkpt lat="45.68636" lon="2.95436">
        <ele>961.94</ele>
        <time>2021-06-16T10:31:13Z</time>
      </trkpt>
      <trkpt lat="45.68632" lon="2.95436">
        <ele>961.46</ele>
        <time>2021-06-16T10:31:14Z</time>
      </trkpt>
      <trkpt lat="45.68628" lon="2.95434">
        <ele>961.46</ele>
        <time>2021-06-16T10:31:15Z</time>
      </trkpt>
      <trkpt lat="45.68623" lon="2.95432">
        <ele>961.94</ele>
        <time>2021-06-16T10:31:16Z</time>
      </trkpt>
      <trkpt lat="45.68591" lon="2.9541">
        <ele>963.86</ele>
        <time>2021-06-16T10:31:26Z</time>
      </trkpt>
      <trkpt lat="45.68565" lon="2.95404">
        <ele>965.78</ele>
        <time>2021-06-16T10:31:36Z</time>
      </trkpt>
      <trkpt lat="45.6855" lon="2.95426">
        <ele>968.67</ele>
        <time>2021-06-16T10:31:47Z</time>
      </trkpt>
      <trkpt lat="45.68549" lon="2.95426">
        <ele>968.67</ele>
        <time>2021-06-16T10:31:48Z</time>
      </trkpt>
      <trkpt lat="45.68548" lon="2.95428">
        <ele>969.15</ele>
        <time>2021-06-16T10:31:49Z</time>
      </trkpt>
      <trkpt lat="45.68548" lon="2.9543">
        <ele>969.15</ele>
        <time>2021-06-16T10:31:50Z</time>
      </trkpt>
      <trkpt lat="45.68547" lon="2.95433">
        <ele>969.15</ele>
        <time>2021-06-16T10:31:51Z</time>
      </trkpt>
      <trkpt lat="45.68546" lon="2.95434">
        <ele>969.15</ele>
        <time>2021-06-16T10:31:52Z</time>
      </trkpt>
      <trkpt lat="45.68544" lon="2.95435">
        <ele>969.63</ele>
        <time>2021-06-16T10:31:53Z</time>
      </trkpt>
      <trkpt lat="45.68543" lon="2.95437">
        <ele>970.11</ele>
        <time>2021-06-16T10:31:54Z</time>
      </trkpt>
      <trkpt lat="45.68542" lon="2.95439">
        <ele>970.11</ele>
        <time>2021-06-16T10:31:55Z</time>
      </trkpt>
      <trkpt lat="45.68534" lon="2.95449">
        <ele>971.55</ele>
        <time>2021-06-16T10:32:03Z</time>
      </trkpt>
      <trkpt lat="45.68532" lon="2.9545">
        <ele>971.07</ele>
        <time>2021-06-16T10:32:04Z</time>
      </trkpt>
      <trkpt lat="45.6853" lon="2.95455">
        <ele>971.55</ele>
        <time>2021-06-16T10:32:07Z</time>
      </trkpt>
      <trkpt lat="45.68528" lon="2.95457">
        <ele>972.03</ele>
        <time>2021-06-16T10:32:08Z</time>
      </trkpt>
      <trkpt lat="45.68518" lon="2.95464">
        <ele>972.51</ele>
        <time>2021-06-16T10:32:13Z</time>
      </trkpt>
      <trkpt lat="45.68517" lon="2.95466">
        <ele>972.99</ele>
        <time>2021-06-16T10:32:14Z</time>
      </trkpt>
      <trkpt lat="45.68514" lon="2.95468">
        <ele>972.99</ele>
        <time>2021-06-16T10:32:15Z</time>
      </trkpt>
      <trkpt lat="45.68513" lon="2.95469">
        <ele>972.99</ele>
        <time>2021-06-16T10:32:16Z</time>
      </trkpt>
      <trkpt lat="45.68511" lon="2.95471">
        <ele>972.99</ele>
        <time>2021-06-16T10:32:17Z</time>
      </trkpt>
      <trkpt lat="45.68506" lon="2.95474">
        <ele>974.43</ele>
        <time>2021-06-16T10:32:22Z</time>
      </trkpt>
      <trkpt lat="45.68488" lon="2.95494">
        <ele>974.91</ele>
        <time>2021-06-16T10:32:33Z</time>
      </trkpt>
      <trkpt lat="45.68487" lon="2.95497">
        <ele>975.39</ele>
        <time>2021-06-16T10:32:34Z</time>
      </trkpt>
      <trkpt lat="45.68486" lon="2.955">
        <ele>974.91</ele>
        <time>2021-06-16T10:32:35Z</time>
      </trkpt>
      <trkpt lat="45.68484" lon="2.95502">
        <ele>974.91</ele>
        <time>2021-06-16T10:32:36Z</time>
      </trkpt>
      <trkpt lat="45.68483" lon="2.95503">
        <ele>975.39</ele>
        <time>2021-06-16T10:32:37Z</time>
      </trkpt>
      <trkpt lat="45.68457" lon="2.95532">
        <ele>975.88</ele>
        <time>2021-06-16T10:32:48Z</time>
      </trkpt>
      <trkpt lat="45.68449" lon="2.95537">
        <ele>975.39</ele>
        <time>2021-06-16T10:32:51Z</time>
      </trkpt>
      <trkpt lat="45.6842" lon="2.95578">
        <ele>974.91</ele>
        <time>2021-06-16T10:33:01Z</time>
      </trkpt>
      <trkpt lat="45.68398" lon="2.95621">
        <ele>973.95</ele>
        <time>2021-06-16T10:33:09Z</time>
      </trkpt>
      <trkpt lat="45.68374" lon="2.95693">
        <ele>972.99</ele>
        <time>2021-06-16T10:33:21Z</time>
      </trkpt>
      <trkpt lat="45.68373" lon="2.95699">
        <ele>973.47</ele>
        <time>2021-06-16T10:33:22Z</time>
      </trkpt>
      <trkpt lat="45.68355" lon="2.95758">
        <ele>972.03</ele>
        <time>2021-06-16T10:33:33Z</time>
      </trkpt>
      <trkpt lat="45.6834" lon="2.95799">
        <ele>970.11</ele>
        <time>2021-06-16T10:33:40Z</time>
      </trkpt>
      <trkpt lat="45.68338" lon="2.95806">
        <ele>970.11</ele>
        <time>2021-06-16T10:33:41Z</time>
      </trkpt>
      <trkpt lat="45.68336" lon="2.95813">
        <ele>969.63</ele>
        <time>2021-06-16T10:33:42Z</time>
      </trkpt>
      <trkpt lat="45.68334" lon="2.95821">
        <ele>970.11</ele>
        <time>2021-06-16T10:33:43Z</time>
      </trkpt>
      <trkpt lat="45.68333" lon="2.95828">
        <ele>970.11</ele>
        <time>2021-06-16T10:33:44Z</time>
      </trkpt>
      <trkpt lat="45.6833" lon="2.95862">
        <ele>969.63</ele>
        <time>2021-06-16T10:33:49Z</time>
      </trkpt>
      <trkpt lat="45.6833" lon="2.95868">
        <ele>970.11</ele>
        <time>2021-06-16T10:33:50Z</time>
      </trkpt>
      <trkpt lat="45.68331" lon="2.9588">
        <ele>970.11</ele>
        <time>2021-06-16T10:33:52Z</time>
      </trkpt>
      <trkpt lat="45.68331" lon="2.95886">
        <ele>970.11</ele>
        <time>2021-06-16T10:33:53Z</time>
      </trkpt>
      <trkpt lat="45.68332" lon="2.95912">
        <ele>970.11</ele>
        <time>2021-06-16T10:33:57Z</time>
      </trkpt>
      <trkpt lat="45.68332" lon="2.95918">
        <ele>970.11</ele>
        <time>2021-06-16T10:33:58Z</time>
      </trkpt>
      <trkpt lat="45.68334" lon="2.95956">
        <ele>970.59</ele>
        <time>2021-06-16T10:34:04Z</time>
      </trkpt>
      <trkpt lat="45.68335" lon="2.95981">
        <ele>971.07</ele>
        <time>2021-06-16T10:34:08Z</time>
      </trkpt>
      <trkpt lat="45.68336" lon="2.96021">
        <ele>971.07</ele>
        <time>2021-06-16T10:34:14Z</time>
      </trkpt>
      <trkpt lat="45.68337" lon="2.96034">
        <ele>970.59</ele>
        <time>2021-06-16T10:34:16Z</time>
      </trkpt>
      <trkpt lat="45.68338" lon="2.96041">
        <ele>971.07</ele>
        <time>2021-06-16T10:34:17Z</time>
      </trkpt>
      <trkpt lat="45.68343" lon="2.96158">
        <ele>969.63</ele>
        <time>2021-06-16T10:34:32Z</time>
      </trkpt>
      <trkpt lat="45.68346" lon="2.96278">
        <ele>970.11</ele>
        <time>2021-06-16T10:34:47Z</time>
      </trkpt>
      <trkpt lat="45.68345" lon="2.96285">
        <ele>969.63</ele>
        <time>2021-06-16T10:34:48Z</time>
      </trkpt>
      <trkpt lat="45.68331" lon="2.96373">
        <ele>968.67</ele>
        <time>2021-06-16T10:35:00Z</time>
      </trkpt>
      <trkpt lat="45.68328" lon="2.96381">
        <ele>968.18</ele>
        <time>2021-06-16T10:35:01Z</time>
      </trkpt>
      <trkpt lat="45.68325" lon="2.96389">
        <ele>968.18</ele>
        <time>2021-06-16T10:35:02Z</time>
      </trkpt>
      <trkpt lat="45.68322" lon="2.96397">
        <ele>968.67</ele>
        <time>2021-06-16T10:35:03Z</time>
      </trkpt>
      <trkpt lat="45.6832" lon="2.96405">
        <ele>968.18</ele>
        <time>2021-06-16T10:35:04Z</time>
      </trkpt>
      <trkpt lat="45.68317" lon="2.96412">
        <ele>968.18</ele>
        <time>2021-06-16T10:35:05Z</time>
      </trkpt>
      <trkpt lat="45.68315" lon="2.9642">
        <ele>968.18</ele>
        <time>2021-06-16T10:35:06Z</time>
      </trkpt>
      <trkpt lat="45.68309" lon="2.96434">
        <ele>968.18</ele>
        <time>2021-06-16T10:35:08Z</time>
      </trkpt>
      <trkpt lat="45.68303" lon="2.96447">
        <ele>968.18</ele>
        <time>2021-06-16T10:35:10Z</time>
      </trkpt>
      <trkpt lat="45.68293" lon="2.96472">
        <ele>968.18</ele>
        <time>2021-06-16T10:35:14Z</time>
      </trkpt>
      <trkpt lat="45.68258" lon="2.9654">
        <ele>970.59</ele>
        <time>2021-06-16T10:35:27Z</time>
      </trkpt>
      <trkpt lat="45.68247" lon="2.9657">
        <ele>972.51</ele>
        <time>2021-06-16T10:35:35Z</time>
      </trkpt>
      <trkpt lat="45.6824" lon="2.96597">
        <ele>974.43</ele>
        <time>2021-06-16T10:35:46Z</time>
      </trkpt>
      <trkpt lat="45.6824" lon="2.96599">
        <ele>974.91</ele>
        <time>2021-06-16T10:35:47Z</time>
      </trkpt>
      <trkpt lat="45.68239" lon="2.96601">
        <ele>974.91</ele>
        <time>2021-06-16T10:35:48Z</time>
      </trkpt>
      <trkpt lat="45.6824" lon="2.96629">
        <ele>976.84</ele>
        <time>2021-06-16T10:36:01Z</time>
      </trkpt>
      <trkpt lat="45.6824" lon="2.96631">
        <ele>977.32</ele>
        <time>2021-06-16T10:36:02Z</time>
      </trkpt>
      <trkpt lat="45.6824" lon="2.96634">
        <ele>977.32</ele>
        <time>2021-06-16T10:36:03Z</time>
      </trkpt>
      <trkpt lat="45.68241" lon="2.96636">
        <ele>976.84</ele>
        <time>2021-06-16T10:36:04Z</time>
      </trkpt>
      <trkpt lat="45.68241" lon="2.96639">
        <ele>976.84</ele>
        <time>2021-06-16T10:36:05Z</time>
      </trkpt>
      <trkpt lat="45.68241" lon="2.96642">
        <ele>977.32</ele>
        <time>2021-06-16T10:36:06Z</time>
      </trkpt>
      <trkpt lat="45.68242" lon="2.96644">
        <ele>977.32</ele>
        <time>2021-06-16T10:36:07Z</time>
      </trkpt>
      <trkpt lat="45.68242" lon="2.96646">
        <ele>977.32</ele>
        <time>2021-06-16T10:36:08Z</time>
      </trkpt>
      <trkpt lat="45.68242" lon="2.96648">
        <ele>977.32</ele>
        <time>2021-06-16T10:36:09Z</time>
      </trkpt>
      <trkpt lat="45.68244" lon="2.96669">
        <ele>977.32</ele>
        <time>2021-06-16T10:36:21Z</time>
      </trkpt>
      <trkpt lat="45.68244" lon="2.96666">
        <ele>976.84</ele>
        <time>2021-06-16T10:36:38Z</time>
      </trkpt>
      <trkpt lat="45.68243" lon="2.96663">
        <ele>976.84</ele>
        <time>2021-06-16T10:36:39Z</time>
      </trkpt>
      <trkpt lat="45.68241" lon="2.96645">
        <ele>976.84</ele>
        <time>2021-06-16T10:36:53Z</time>
      </trkpt>
      <trkpt lat="45.6824" lon="2.96618">
        <ele>975.39</ele>
        <time>2021-06-16T10:37:03Z</time>
      </trkpt>
      <trkpt lat="45.68245" lon="2.96569">
        <ele>972.03</ele>
        <time>2021-06-16T10:37:13Z</time>
      </trkpt>
      <trkpt lat="45.68263" lon="2.9653">
        <ele>970.11</ele>
        <time>2021-06-16T10:37:22Z</time>
      </trkpt>
      <trkpt lat="45.68295" lon="2.96479">
        <ele>969.15</ele>
        <time>2021-06-16T10:37:34Z</time>
      </trkpt>
      <trkpt lat="45.68315" lon="2.96429">
        <ele>968.18</ele>
        <time>2021-06-16T10:37:45Z</time>
      </trkpt>
      <trkpt lat="45.68328" lon="2.96394">
        <ele>968.67</ele>
        <time>2021-06-16T10:37:55Z</time>
      </trkpt>
      <trkpt lat="45.6834" lon="2.96346">
        <ele>969.63</ele>
        <time>2021-06-16T10:38:06Z</time>
      </trkpt>
      <trkpt lat="45.68344" lon="2.96302">
        <ele>969.63</ele>
        <time>2021-06-16T10:38:17Z</time>
      </trkpt>
      <trkpt lat="45.68344" lon="2.96224">
        <ele>969.63</ele>
        <time>2021-06-16T10:38:33Z</time>
      </trkpt>
      <trkpt lat="45.68343" lon="2.96158">
        <ele>969.63</ele>
        <time>2021-06-16T10:38:47Z</time>
      </trkpt>
      <trkpt lat="45.68342" lon="2.96153">
        <ele>969.63</ele>
        <time>2021-06-16T10:38:50Z</time>
      </trkpt>
      <trkpt lat="45.6834" lon="2.96152">
        <ele>970.11</ele>
        <time>2021-06-16T10:38:51Z</time>
      </trkpt>
      <trkpt lat="45.68337" lon="2.96152">
        <ele>969.63</ele>
        <time>2021-06-16T10:38:52Z</time>
      </trkpt>
      <trkpt lat="45.68334" lon="2.96153">
        <ele>970.11</ele>
        <time>2021-06-16T10:38:53Z</time>
      </trkpt>
      <trkpt lat="45.68332" lon="2.96155">
        <ele>970.11</ele>
        <time>2021-06-16T10:38:54Z</time>
      </trkpt>
      <trkpt lat="45.6833" lon="2.96158">
        <ele>970.11</ele>
        <time>2021-06-16T10:38:55Z</time>
      </trkpt>
      <trkpt lat="45.68331" lon="2.96214">
        <ele>970.11</ele>
        <time>2021-06-16T10:39:05Z</time>
      </trkpt>
      <trkpt lat="45.68332" lon="2.96309">
        <ele>969.63</ele>
        <time>2021-06-16T10:39:19Z</time>
      </trkpt>
      <trkpt lat="45.68331" lon="2.96316">
        <ele>969.15</ele>
        <time>2021-06-16T10:39:20Z</time>
      </trkpt>
      <trkpt lat="45.68319" lon="2.96363">
        <ele>969.63</ele>
        <time>2021-06-16T10:39:27Z</time>
      </trkpt>
      <trkpt lat="45.68278" lon="2.96453">
        <ele>971.07</ele>
        <time>2021-06-16T10:39:42Z</time>
      </trkpt>
      <trkpt lat="45.68241" lon="2.96531">
        <ele>972.03</ele>
        <time>2021-06-16T10:39:57Z</time>
      </trkpt>
      <trkpt lat="45.68238" lon="2.96536">
        <ele>972.51</ele>
        <time>2021-06-16T10:39:58Z</time>
      </trkpt>
      <trkpt lat="45.6822" lon="2.96606">
        <ele>972.99</ele>
        <time>2021-06-16T10:40:10Z</time>
      </trkpt>
      <trkpt lat="45.68187" lon="2.96671">
        <ele>972.51</ele>
        <time>2021-06-16T10:40:24Z</time>
      </trkpt>
      <trkpt lat="45.68113" lon="2.96718">
        <ele>970.11</ele>
        <time>2021-06-16T10:40:40Z</time>
      </trkpt>
      <trkpt lat="45.68101" lon="2.9672">
        <ele>969.63</ele>
        <time>2021-06-16T10:40:43Z</time>
      </trkpt>
      <trkpt lat="45.68099" lon="2.96717">
        <ele>969.63</ele>
        <time>2021-06-16T10:40:44Z</time>
      </trkpt>
      <trkpt lat="45.68097" lon="2.96714">
        <ele>969.63</ele>
        <time>2021-06-16T10:40:45Z</time>
      </trkpt>
      <trkpt lat="45.68096" lon="2.9671">
        <ele>970.11</ele>
        <time>2021-06-16T10:40:46Z</time>
      </trkpt>
      <trkpt lat="45.68096" lon="2.96707">
        <ele>970.59</ele>
        <time>2021-06-16T10:40:47Z</time>
      </trkpt>
      <trkpt lat="45.68096" lon="2.96704">
        <ele>970.59</ele>
        <time>2021-06-16T10:40:48Z</time>
      </trkpt>
      <trkpt lat="45.68093" lon="2.96688">
        <ele>972.99</ele>
        <time>2021-06-16T10:40:54Z</time>
      </trkpt>
      <trkpt lat="45.68089" lon="2.96684">
        <ele>973.47</ele>
        <time>2021-06-16T10:40:57Z</time>
      </trkpt>
      <trkpt lat="45.68087" lon="2.96685">
        <ele>973.47</ele>
        <time>2021-06-16T10:40:58Z</time>
      </trkpt>
      <trkpt lat="45.68085" lon="2.96685">
        <ele>973.47</ele>
        <time>2021-06-16T10:40:59Z</time>
      </trkpt>
      <trkpt lat="45.68083" lon="2.96686">
        <ele>973.47</ele>
        <time>2021-06-16T10:41:00Z</time>
      </trkpt>
      <trkpt lat="45.6808" lon="2.96687">
        <ele>973.47</ele>
        <time>2021-06-16T10:41:01Z</time>
      </trkpt>
      <trkpt lat="45.68077" lon="2.96688">
        <ele>972.99</ele>
        <time>2021-06-16T10:41:02Z</time>
      </trkpt>
      <trkpt lat="45.68038" lon="2.96706">
        <ele>972.03</ele>
        <time>2021-06-16T10:41:14Z</time>
      </trkpt>
      <trkpt lat="45.68021" lon="2.96735">
        <ele>970.59</ele>
        <time>2021-06-16T10:41:20Z</time>
      </trkpt>
      <trkpt lat="45.68013" lon="2.96744">
        <ele>969.63</ele>
        <time>2021-06-16T10:41:22Z</time>
      </trkpt>
      <trkpt lat="45.68011" lon="2.96751">
        <ele>969.15</ele>
        <time>2021-06-16T10:41:23Z</time>
      </trkpt>
      <trkpt lat="45.68006" lon="2.96773">
        <ele>965.3</ele>
        <time>2021-06-16T10:41:27Z</time>
      </trkpt>
      <trkpt lat="45.68002" lon="2.96778">
        <ele>965.3</ele>
        <time>2021-06-16T10:41:28Z</time>
      </trkpt>
      <trkpt lat="45.67998" lon="2.96781">
        <ele>964.34</ele>
        <time>2021-06-16T10:41:29Z</time>
      </trkpt>
      <trkpt lat="45.67993" lon="2.96783">
        <ele>964.34</ele>
        <time>2021-06-16T10:41:30Z</time>
      </trkpt>
      <trkpt lat="45.67988" lon="2.96784">
        <ele>964.34</ele>
        <time>2021-06-16T10:41:31Z</time>
      </trkpt>
      <trkpt lat="45.67984" lon="2.96785">
        <ele>964.34</ele>
        <time>2021-06-16T10:41:32Z</time>
      </trkpt>
      <trkpt lat="45.67981" lon="2.96787">
        <ele>964.82</ele>
        <time>2021-06-16T10:41:33Z</time>
      </trkpt>
      <trkpt lat="45.67978" lon="2.96789">
        <ele>964.82</ele>
        <time>2021-06-16T10:41:34Z</time>
      </trkpt>
      <trkpt lat="45.67974" lon="2.96791">
        <ele>964.82</ele>
        <time>2021-06-16T10:41:35Z</time>
      </trkpt>
      <trkpt lat="45.67969" lon="2.96793">
        <ele>964.82</ele>
        <time>2021-06-16T10:41:36Z</time>
      </trkpt>
      <trkpt lat="45.67965" lon="2.96796">
        <ele>964.82</ele>
        <time>2021-06-16T10:41:37Z</time>
      </trkpt>
      <trkpt lat="45.67938" lon="2.96812">
        <ele>965.78</ele>
        <time>2021-06-16T10:41:44Z</time>
      </trkpt>
      <trkpt lat="45.67934" lon="2.96814">
        <ele>965.78</ele>
        <time>2021-06-16T10:41:45Z</time>
      </trkpt>
      <trkpt lat="45.67885" lon="2.96837">
        <ele>966.26</ele>
        <time>2021-06-16T10:41:58Z</time>
      </trkpt>
      <trkpt lat="45.67849" lon="2.96847">
        <ele>966.26</ele>
        <time>2021-06-16T10:42:07Z</time>
      </trkpt>
      <trkpt lat="45.67844" lon="2.96847">
        <ele>966.26</ele>
        <time>2021-06-16T10:42:08Z</time>
      </trkpt>
      <trkpt lat="45.67774" lon="2.9685">
        <ele>965.78</ele>
        <time>2021-06-16T10:42:24Z</time>
      </trkpt>
      <trkpt lat="45.67723" lon="2.9684">
        <ele>966.26</ele>
        <time>2021-06-16T10:42:37Z</time>
      </trkpt>
      <trkpt lat="45.67676" lon="2.96827">
        <ele>966.74</ele>
        <time>2021-06-16T10:42:48Z</time>
      </trkpt>
      <trkpt lat="45.67623" lon="2.96813">
        <ele>965.78</ele>
        <time>2021-06-16T10:43:01Z</time>
      </trkpt>
      <trkpt lat="45.67618" lon="2.96812">
        <ele>965.78</ele>
        <time>2021-06-16T10:43:02Z</time>
      </trkpt>
      <trkpt lat="45.67597" lon="2.96807">
        <ele>964.82</ele>
        <time>2021-06-16T10:43:06Z</time>
      </trkpt>
      <trkpt lat="45.67592" lon="2.96807">
        <ele>964.82</ele>
        <time>2021-06-16T10:43:07Z</time>
      </trkpt>
      <trkpt lat="45.67587" lon="2.96806">
        <ele>964.34</ele>
        <time>2021-06-16T10:43:08Z</time>
      </trkpt>
      <trkpt lat="45.67527" lon="2.96798">
        <ele>961.46</ele>
        <time>2021-06-16T10:43:18Z</time>
      </trkpt>
      <trkpt lat="45.67471" lon="2.96773">
        <ele>958.57</ele>
        <time>2021-06-16T10:43:27Z</time>
      </trkpt>
      <trkpt lat="45.6745" lon="2.96765">
        <ele>957.13</ele>
        <time>2021-06-16T10:43:31Z</time>
      </trkpt>
      <trkpt lat="45.67437" lon="2.96759">
        <ele>956.17</ele>
        <time>2021-06-16T10:43:35Z</time>
      </trkpt>
      <trkpt lat="45.67436" lon="2.96761">
        <ele>956.65</ele>
        <time>2021-06-16T10:43:36Z</time>
      </trkpt>
      <trkpt lat="45.67436" lon="2.96764">
        <ele>956.17</ele>
        <time>2021-06-16T10:43:37Z</time>
      </trkpt>
      <trkpt lat="45.67437" lon="2.96767">
        <ele>956.17</ele>
        <time>2021-06-16T10:43:38Z</time>
      </trkpt>
      <trkpt lat="45.67439" lon="2.96771">
        <ele>956.17</ele>
        <time>2021-06-16T10:43:39Z</time>
      </trkpt>
      <trkpt lat="45.67441" lon="2.96775">
        <ele>956.17</ele>
        <time>2021-06-16T10:43:40Z</time>
      </trkpt>
      <trkpt lat="45.67443" lon="2.96779">
        <ele>955.69</ele>
        <time>2021-06-16T10:43:41Z</time>
      </trkpt>
      <trkpt lat="45.67462" lon="2.96817">
        <ele>954.25</ele>
        <time>2021-06-16T10:43:49Z</time>
      </trkpt>
      <trkpt lat="45.67465" lon="2.96822">
        <ele>954.25</ele>
        <time>2021-06-16T10:43:50Z</time>
      </trkpt>
      <trkpt lat="45.67479" lon="2.96854">
        <ele>953.28</ele>
        <time>2021-06-16T10:43:56Z</time>
      </trkpt>
      <trkpt lat="45.6751" lon="2.96924">
        <ele>950.4</ele>
        <time>2021-06-16T10:44:06Z</time>
      </trkpt>
      <trkpt lat="45.67522" lon="2.96955">
        <ele>948.96</ele>
        <time>2021-06-16T10:44:10Z</time>
      </trkpt>
      <trkpt lat="45.6754" lon="2.97">
        <ele>946.07</ele>
        <time>2021-06-16T10:44:16Z</time>
      </trkpt>
      <trkpt lat="45.67542" lon="2.97004">
        <ele>945.59</ele>
        <time>2021-06-16T10:44:23Z</time>
      </trkpt>
      <trkpt lat="45.67558" lon="2.97034">
        <ele>944.15</ele>
        <time>2021-06-16T10:44:57Z</time>
      </trkpt>
      <trkpt lat="45.67569" lon="2.97056">
        <ele>942.23</ele>
        <time>2021-06-16T10:45:06Z</time>
      </trkpt>
      <trkpt lat="45.67583" lon="2.97079">
        <ele>940.79</ele>
        <time>2021-06-16T10:45:23Z</time>
      </trkpt>
      <trkpt lat="45.67598" lon="2.97104">
        <ele>937.42</ele>
        <time>2021-06-16T10:45:28Z</time>
      </trkpt>
      <trkpt lat="45.67601" lon="2.97109">
        <ele>937.42</ele>
        <time>2021-06-16T10:45:29Z</time>
      </trkpt>
      <trkpt lat="45.67604" lon="2.97113">
        <ele>937.42</ele>
        <time>2021-06-16T10:45:30Z</time>
      </trkpt>
      <trkpt lat="45.67608" lon="2.97117">
        <ele>936.94</ele>
        <time>2021-06-16T10:45:31Z</time>
      </trkpt>
      <trkpt lat="45.67611" lon="2.9712">
        <ele>935.98</ele>
        <time>2021-06-16T10:45:32Z</time>
      </trkpt>
      <trkpt lat="45.67646" lon="2.97146">
        <ele>932.62</ele>
        <time>2021-06-16T10:45:39Z</time>
      </trkpt>
      <trkpt lat="45.67696" lon="2.97177">
        <ele>929.73</ele>
        <time>2021-06-16T10:45:47Z</time>
      </trkpt>
      <trkpt lat="45.67702" lon="2.97183">
        <ele>929.73</ele>
        <time>2021-06-16T10:45:48Z</time>
      </trkpt>
      <trkpt lat="45.67758" lon="2.97252">
        <ele>926.85</ele>
        <time>2021-06-16T10:46:00Z</time>
      </trkpt>
      <trkpt lat="45.6778" lon="2.97284">
        <ele>926.37</ele>
        <time>2021-06-16T10:46:08Z</time>
      </trkpt>
      <trkpt lat="45.67785" lon="2.97295">
        <ele>926.37</ele>
        <time>2021-06-16T10:46:10Z</time>
      </trkpt>
      <trkpt lat="45.67824" lon="2.97388">
        <ele>926.37</ele>
        <time>2021-06-16T10:46:27Z</time>
      </trkpt>
      <trkpt lat="45.67876" lon="2.97481">
        <ele>924.93</ele>
        <time>2021-06-16T10:46:43Z</time>
      </trkpt>
      <trkpt lat="45.67894" lon="2.97514">
        <ele>924.45</ele>
        <time>2021-06-16T10:46:49Z</time>
      </trkpt>
      <trkpt lat="45.67931" lon="2.97565">
        <ele>924.45</ele>
        <time>2021-06-16T10:47:02Z</time>
      </trkpt>
      <trkpt lat="45.67991" lon="2.97615">
        <ele>923.48</ele>
        <time>2021-06-16T10:47:16Z</time>
      </trkpt>
      <trkpt lat="45.68035" lon="2.97652">
        <ele>921.56</ele>
        <time>2021-06-16T10:47:25Z</time>
      </trkpt>
      <trkpt lat="45.68039" lon="2.97658">
        <ele>922.04</ele>
        <time>2021-06-16T10:47:26Z</time>
      </trkpt>
      <trkpt lat="45.68048" lon="2.97671">
        <ele>921.08</ele>
        <time>2021-06-16T10:47:28Z</time>
      </trkpt>
      <trkpt lat="45.68052" lon="2.97678">
        <ele>920.6</ele>
        <time>2021-06-16T10:47:29Z</time>
      </trkpt>
      <trkpt lat="45.68068" lon="2.97708">
        <ele>919.64</ele>
        <time>2021-06-16T10:47:33Z</time>
      </trkpt>
      <trkpt lat="45.68071" lon="2.97716">
        <ele>918.68</ele>
        <time>2021-06-16T10:47:34Z</time>
      </trkpt>
      <trkpt lat="45.68075" lon="2.97724">
        <ele>918.68</ele>
        <time>2021-06-16T10:47:35Z</time>
      </trkpt>
      <trkpt lat="45.68077" lon="2.97732">
        <ele>917.72</ele>
        <time>2021-06-16T10:47:36Z</time>
      </trkpt>
      <trkpt lat="45.6808" lon="2.97741">
        <ele>917.24</ele>
        <time>2021-06-16T10:47:37Z</time>
      </trkpt>
      <trkpt lat="45.68116" lon="2.97854">
        <ele>914.83</ele>
        <time>2021-06-16T10:47:50Z</time>
      </trkpt>
      <trkpt lat="45.68119" lon="2.97862">
        <ele>915.31</ele>
        <time>2021-06-16T10:47:51Z</time>
      </trkpt>
      <trkpt lat="45.6814" lon="2.97893">
        <ele>914.83</ele>
        <time>2021-06-16T10:47:58Z</time>
      </trkpt>
      <trkpt lat="45.68143" lon="2.97897">
        <ele>915.31</ele>
        <time>2021-06-16T10:47:59Z</time>
      </trkpt>
      <trkpt lat="45.68145" lon="2.979">
        <ele>915.79</ele>
        <time>2021-06-16T10:48:00Z</time>
      </trkpt>
      <trkpt lat="45.68147" lon="2.97905">
        <ele>915.31</ele>
        <time>2021-06-16T10:48:01Z</time>
      </trkpt>
      <trkpt lat="45.6815" lon="2.97908">
        <ele>915.31</ele>
        <time>2021-06-16T10:48:02Z</time>
      </trkpt>
      <trkpt lat="45.68152" lon="2.9791">
        <ele>915.79</ele>
        <time>2021-06-16T10:48:03Z</time>
      </trkpt>
      <trkpt lat="45.68155" lon="2.97912">
        <ele>915.31</ele>
        <time>2021-06-16T10:48:04Z</time>
      </trkpt>
      <trkpt lat="45.68159" lon="2.97914">
        <ele>915.79</ele>
        <time>2021-06-16T10:48:05Z</time>
      </trkpt>
      <trkpt lat="45.68163" lon="2.97916">
        <ele>915.79</ele>
        <time>2021-06-16T10:48:06Z</time>
      </trkpt>
      <trkpt lat="45.68176" lon="2.97923">
        <ele>915.79</ele>
        <time>2021-06-16T10:48:09Z</time>
      </trkpt>
      <trkpt lat="45.6821" lon="2.97937">
        <ele>916.75</ele>
        <time>2021-06-16T10:48:18Z</time>
      </trkpt>
      <trkpt lat="45.68252" lon="2.97947">
        <ele>917.72</ele>
        <time>2021-06-16T10:48:30Z</time>
      </trkpt>
      <trkpt lat="45.68269" lon="2.97948">
        <ele>918.68</ele>
        <time>2021-06-16T10:48:35Z</time>
      </trkpt>
      <trkpt lat="45.68272" lon="2.97949">
        <ele>918.68</ele>
        <time>2021-06-16T10:48:36Z</time>
      </trkpt>
      <trkpt lat="45.68275" lon="2.97949">
        <ele>918.68</ele>
        <time>2021-06-16T10:48:37Z</time>
      </trkpt>
      <trkpt lat="45.68278" lon="2.97949">
        <ele>918.68</ele>
        <time>2021-06-16T10:48:38Z</time>
      </trkpt>
      <trkpt lat="45.68281" lon="2.97949">
        <ele>919.64</ele>
        <time>2021-06-16T10:48:39Z</time>
      </trkpt>
      <trkpt lat="45.68283" lon="2.9795">
        <ele>919.64</ele>
        <time>2021-06-16T10:48:40Z</time>
      </trkpt>
      <trkpt lat="45.68286" lon="2.9795">
        <ele>919.64</ele>
        <time>2021-06-16T10:48:41Z</time>
      </trkpt>
      <trkpt lat="45.68288" lon="2.9795">
        <ele>919.64</ele>
        <time>2021-06-16T10:48:42Z</time>
      </trkpt>
      <trkpt lat="45.68291" lon="2.97951">
        <ele>920.12</ele>
        <time>2021-06-16T10:48:43Z</time>
      </trkpt>
      <trkpt lat="45.68321" lon="2.97947">
        <ele>921.56</ele>
        <time>2021-06-16T10:48:56Z</time>
      </trkpt>
      <trkpt lat="45.68325" lon="2.97944">
        <ele>921.56</ele>
        <time>2021-06-16T10:48:58Z</time>
      </trkpt>
      <trkpt lat="45.6833" lon="2.97945">
        <ele>921.08</ele>
        <time>2021-06-16T10:49:00Z</time>
      </trkpt>
      <trkpt lat="45.68333" lon="2.97945">
        <ele>921.08</ele>
        <time>2021-06-16T10:49:01Z</time>
      </trkpt>
      <trkpt lat="45.68364" lon="2.97962">
        <ele>921.08</ele>
        <time>2021-06-16T10:49:10Z</time>
      </trkpt>
      <trkpt lat="45.68369" lon="2.97965">
        <ele>921.08</ele>
        <time>2021-06-16T10:49:11Z</time>
      </trkpt>
      <trkpt lat="45.68401" lon="2.97978">
        <ele>923</ele>
        <time>2021-06-16T10:49:21Z</time>
      </trkpt>
      <trkpt lat="45.68403" lon="2.97978">
        <ele>923</ele>
        <time>2021-06-16T10:49:22Z</time>
      </trkpt>
      <trkpt lat="45.68406" lon="2.97978">
        <ele>923</ele>
        <time>2021-06-16T10:49:23Z</time>
      </trkpt>
      <trkpt lat="45.68409" lon="2.97977">
        <ele>923</ele>
        <time>2021-06-16T10:49:24Z</time>
      </trkpt>
      <trkpt lat="45.68412" lon="2.97977">
        <ele>923</ele>
        <time>2021-06-16T10:49:25Z</time>
      </trkpt>
      <trkpt lat="45.68414" lon="2.97976">
        <ele>923</ele>
        <time>2021-06-16T10:49:26Z</time>
      </trkpt>
      <trkpt lat="45.68435" lon="2.97964">
        <ele>924.45</ele>
        <time>2021-06-16T10:49:36Z</time>
      </trkpt>
      <trkpt lat="45.68444" lon="2.97959">
        <ele>925.41</ele>
        <time>2021-06-16T10:49:43Z</time>
      </trkpt>
      <trkpt lat="45.68451" lon="2.97956">
        <ele>926.37</ele>
        <time>2021-06-16T10:49:47Z</time>
      </trkpt>
      <trkpt lat="45.68453" lon="2.97956">
        <ele>926.85</ele>
        <time>2021-06-16T10:49:48Z</time>
      </trkpt>
      <trkpt lat="45.68455" lon="2.97956">
        <ele>926.85</ele>
        <time>2021-06-16T10:49:50Z</time>
      </trkpt>
      <trkpt lat="45.68457" lon="2.97958">
        <ele>926.85</ele>
        <time>2021-06-16T10:49:51Z</time>
      </trkpt>
      <trkpt lat="45.68458" lon="2.9796">
        <ele>927.33</ele>
        <time>2021-06-16T10:49:52Z</time>
      </trkpt>
      <trkpt lat="45.6846" lon="2.97963">
        <ele>927.33</ele>
        <time>2021-06-16T10:49:53Z</time>
      </trkpt>
      <trkpt lat="45.68461" lon="2.97965">
        <ele>927.81</ele>
        <time>2021-06-16T10:49:54Z</time>
      </trkpt>
      <trkpt lat="45.68462" lon="2.97968">
        <ele>927.33</ele>
        <time>2021-06-16T10:49:55Z</time>
      </trkpt>
      <trkpt lat="45.68468" lon="2.97979">
        <ele>928.29</ele>
        <time>2021-06-16T10:50:00Z</time>
      </trkpt>
      <trkpt lat="45.6849" lon="2.98006">
        <ele>926.85</ele>
        <time>2021-06-16T10:50:11Z</time>
      </trkpt>
      <trkpt lat="45.68516" lon="2.98026">
        <ele>925.89</ele>
        <time>2021-06-16T10:50:17Z</time>
      </trkpt>
      <trkpt lat="45.6852" lon="2.98029">
        <ele>925.89</ele>
        <time>2021-06-16T10:50:18Z</time>
      </trkpt>
      <trkpt lat="45.68524" lon="2.98031">
        <ele>925.89</ele>
        <time>2021-06-16T10:50:19Z</time>
      </trkpt>
      <trkpt lat="45.68528" lon="2.98034">
        <ele>925.89</ele>
        <time>2021-06-16T10:50:20Z</time>
      </trkpt>
      <trkpt lat="45.68532" lon="2.98036">
        <ele>925.41</ele>
        <time>2021-06-16T10:50:21Z</time>
      </trkpt>
      <trkpt lat="45.68535" lon="2.98039">
        <ele>925.89</ele>
        <time>2021-06-16T10:50:22Z</time>
      </trkpt>
      <trkpt lat="45.6856" lon="2.98045">
        <ele>926.37</ele>
        <time>2021-06-16T10:50:30Z</time>
      </trkpt>
      <trkpt lat="45.68589" lon="2.98073">
        <ele>925.89</ele>
        <time>2021-06-16T10:50:41Z</time>
      </trkpt>
      <trkpt lat="45.68601" lon="2.9811">
        <ele>923.96</ele>
        <time>2021-06-16T10:50:47Z</time>
      </trkpt>
      <trkpt lat="45.68603" lon="2.98118">
        <ele>923.48</ele>
        <time>2021-06-16T10:50:48Z</time>
      </trkpt>
      <trkpt lat="45.68605" lon="2.98125">
        <ele>923.48</ele>
        <time>2021-06-16T10:50:49Z</time>
      </trkpt>
      <trkpt lat="45.68607" lon="2.98133">
        <ele>923.48</ele>
        <time>2021-06-16T10:50:50Z</time>
      </trkpt>
      <trkpt lat="45.68609" lon="2.9814">
        <ele>923</ele>
        <time>2021-06-16T10:50:51Z</time>
      </trkpt>
      <trkpt lat="45.6861" lon="2.98146">
        <ele>923</ele>
        <time>2021-06-16T10:50:52Z</time>
      </trkpt>
      <trkpt lat="45.68617" lon="2.98165">
        <ele>923</ele>
        <time>2021-06-16T10:50:55Z</time>
      </trkpt>
      <trkpt lat="45.68619" lon="2.9817">
        <ele>923</ele>
        <time>2021-06-16T10:50:56Z</time>
      </trkpt>
      <trkpt lat="45.68622" lon="2.98176">
        <ele>922.52</ele>
        <time>2021-06-16T10:50:57Z</time>
      </trkpt>
      <trkpt lat="45.68625" lon="2.98181">
        <ele>922.04</ele>
        <time>2021-06-16T10:50:58Z</time>
      </trkpt>
      <trkpt lat="45.68628" lon="2.98186">
        <ele>922.52</ele>
        <time>2021-06-16T10:50:59Z</time>
      </trkpt>
      <trkpt lat="45.68636" lon="2.98196">
        <ele>922.04</ele>
        <time>2021-06-16T10:51:01Z</time>
      </trkpt>
      <trkpt lat="45.68643" lon="2.98204">
        <ele>922.04</ele>
        <time>2021-06-16T10:51:03Z</time>
      </trkpt>
      <trkpt lat="45.68659" lon="2.98224">
        <ele>921.56</ele>
        <time>2021-06-16T10:51:09Z</time>
      </trkpt>
      <trkpt lat="45.68662" lon="2.98229">
        <ele>921.08</ele>
        <time>2021-06-16T10:51:10Z</time>
      </trkpt>
      <trkpt lat="45.68665" lon="2.98234">
        <ele>921.08</ele>
        <time>2021-06-16T10:51:11Z</time>
      </trkpt>
      <trkpt lat="45.68675" lon="2.9826">
        <ele>920.6</ele>
        <time>2021-06-16T10:51:16Z</time>
      </trkpt>
      <trkpt lat="45.68677" lon="2.98265">
        <ele>920.12</ele>
        <time>2021-06-16T10:51:17Z</time>
      </trkpt>
      <trkpt lat="45.68678" lon="2.9827">
        <ele>920.12</ele>
        <time>2021-06-16T10:51:18Z</time>
      </trkpt>
      <trkpt lat="45.68679" lon="2.98275">
        <ele>920.12</ele>
        <time>2021-06-16T10:51:19Z</time>
      </trkpt>
      <trkpt lat="45.6868" lon="2.98279">
        <ele>920.12</ele>
        <time>2021-06-16T10:51:20Z</time>
      </trkpt>
      <trkpt lat="45.68681" lon="2.98283">
        <ele>920.12</ele>
        <time>2021-06-16T10:51:21Z</time>
      </trkpt>
      <trkpt lat="45.68683" lon="2.98328">
        <ele>919.64</ele>
        <time>2021-06-16T10:51:32Z</time>
      </trkpt>
      <trkpt lat="45.68683" lon="2.98387">
        <ele>918.68</ele>
        <time>2021-06-16T10:51:43Z</time>
      </trkpt>
      <trkpt lat="45.68686" lon="2.98402">
        <ele>918.68</ele>
        <time>2021-06-16T10:51:45Z</time>
      </trkpt>
      <trkpt lat="45.68688" lon="2.98408">
        <ele>918.68</ele>
        <time>2021-06-16T10:51:46Z</time>
      </trkpt>
      <trkpt lat="45.68691" lon="2.98413">
        <ele>918.2</ele>
        <time>2021-06-16T10:51:47Z</time>
      </trkpt>
      <trkpt lat="45.68694" lon="2.98417">
        <ele>918.2</ele>
        <time>2021-06-16T10:51:48Z</time>
      </trkpt>
      <trkpt lat="45.68697" lon="2.98421">
        <ele>918.2</ele>
        <time>2021-06-16T10:51:49Z</time>
      </trkpt>
      <trkpt lat="45.687" lon="2.98425">
        <ele>918.68</ele>
        <time>2021-06-16T10:51:50Z</time>
      </trkpt>
      <trkpt lat="45.68704" lon="2.98428">
        <ele>918.2</ele>
        <time>2021-06-16T10:51:51Z</time>
      </trkpt>
      <trkpt lat="45.68729" lon="2.98453">
        <ele>918.68</ele>
        <time>2021-06-16T10:52:00Z</time>
      </trkpt>
      <trkpt lat="45.68742" lon="2.98478">
        <ele>918.2</ele>
        <time>2021-06-16T10:52:06Z</time>
      </trkpt>
      <trkpt lat="45.68744" lon="2.98484">
        <ele>917.72</ele>
        <time>2021-06-16T10:52:07Z</time>
      </trkpt>
      <trkpt lat="45.68746" lon="2.98489">
        <ele>917.72</ele>
        <time>2021-06-16T10:52:08Z</time>
      </trkpt>
      <trkpt lat="45.68747" lon="2.98501">
        <ele>917.24</ele>
        <time>2021-06-16T10:52:10Z</time>
      </trkpt>
      <trkpt lat="45.68761" lon="2.98551">
        <ele>916.75</ele>
        <time>2021-06-16T10:52:19Z</time>
      </trkpt>
      <trkpt lat="45.6879" lon="2.98598">
        <ele>918.2</ele>
        <time>2021-06-16T10:52:30Z</time>
      </trkpt>
      <trkpt lat="45.68807" lon="2.98626">
        <ele>920.12</ele>
        <time>2021-06-16T10:52:39Z</time>
      </trkpt>
      <trkpt lat="45.68822" lon="2.9865">
        <ele>922.04</ele>
        <time>2021-06-16T10:52:50Z</time>
      </trkpt>
      <trkpt lat="45.68842" lon="2.98668">
        <ele>923.48</ele>
        <time>2021-06-16T10:53:01Z</time>
      </trkpt>
      <trkpt lat="45.68869" lon="2.98678">
        <ele>925.41</ele>
        <time>2021-06-16T10:53:14Z</time>
      </trkpt>
      <trkpt lat="45.68871" lon="2.98679">
        <ele>925.41</ele>
        <time>2021-06-16T10:53:15Z</time>
      </trkpt>
      <trkpt lat="45.68872" lon="2.98681">
        <ele>925.41</ele>
        <time>2021-06-16T10:53:16Z</time>
      </trkpt>
      <trkpt lat="45.68873" lon="2.98682">
        <ele>925.89</ele>
        <time>2021-06-16T10:53:17Z</time>
      </trkpt>
      <trkpt lat="45.68875" lon="2.98682">
        <ele>925.89</ele>
        <time>2021-06-16T10:53:18Z</time>
      </trkpt>
      <trkpt lat="45.68878" lon="2.98683">
        <ele>925.89</ele>
        <time>2021-06-16T10:53:19Z</time>
      </trkpt>
      <trkpt lat="45.6888" lon="2.98684">
        <ele>925.89</ele>
        <time>2021-06-16T10:53:20Z</time>
      </trkpt>
      <trkpt lat="45.68898" lon="2.98683">
        <ele>927.33</ele>
        <time>2021-06-16T10:53:29Z</time>
      </trkpt>
      <trkpt lat="45.689" lon="2.98682">
        <ele>927.33</ele>
        <time>2021-06-16T10:53:30Z</time>
      </trkpt>
      <trkpt lat="45.68901" lon="2.98681">
        <ele>927.33</ele>
        <time>2021-06-16T10:53:31Z</time>
      </trkpt>
      <trkpt lat="45.68902" lon="2.98679">
        <ele>927.33</ele>
        <time>2021-06-16T10:53:32Z</time>
      </trkpt>
      <trkpt lat="45.68903" lon="2.98678">
        <ele>927.33</ele>
        <time>2021-06-16T10:53:33Z</time>
      </trkpt>
      <trkpt lat="45.68905" lon="2.98677">
        <ele>927.81</ele>
        <time>2021-06-16T10:53:34Z</time>
      </trkpt>
      <trkpt lat="45.68908" lon="2.98676">
        <ele>927.81</ele>
        <time>2021-06-16T10:53:35Z</time>
      </trkpt>
      <trkpt lat="45.68911" lon="2.98676">
        <ele>928.29</ele>
        <time>2021-06-16T10:53:36Z</time>
      </trkpt>
      <trkpt lat="45.68914" lon="2.98676">
        <ele>927.81</ele>
        <time>2021-06-16T10:53:37Z</time>
      </trkpt>
      <trkpt lat="45.68917" lon="2.98675">
        <ele>927.81</ele>
        <time>2021-06-16T10:53:38Z</time>
      </trkpt>
      <trkpt lat="45.68919" lon="2.98675">
        <ele>927.81</ele>
        <time>2021-06-16T10:53:39Z</time>
      </trkpt>
      <trkpt lat="45.68922" lon="2.98675">
        <ele>927.81</ele>
        <time>2021-06-16T10:53:40Z</time>
      </trkpt>
      <trkpt lat="45.68925" lon="2.98676">
        <ele>927.33</ele>
        <time>2021-06-16T10:53:41Z</time>
      </trkpt>
      <trkpt lat="45.68929" lon="2.98678">
        <ele>926.85</ele>
        <time>2021-06-16T10:53:42Z</time>
      </trkpt>
      <trkpt lat="45.6896" lon="2.98711">
        <ele>926.37</ele>
        <time>2021-06-16T10:53:52Z</time>
      </trkpt>
      <trkpt lat="45.6899" lon="2.9874">
        <ele>927.81</ele>
        <time>2021-06-16T10:54:03Z</time>
      </trkpt>
      <trkpt lat="45.6902" lon="2.98789">
        <ele>927.81</ele>
        <time>2021-06-16T10:54:18Z</time>
      </trkpt>
      <trkpt lat="45.69031" lon="2.98804">
        <ele>927.33</ele>
        <time>2021-06-16T10:54:24Z</time>
      </trkpt>
      <trkpt lat="45.69033" lon="2.98803">
        <ele>927.33</ele>
        <time>2021-06-16T10:54:25Z</time>
      </trkpt>
      <trkpt lat="45.69035" lon="2.98802">
        <ele>926.85</ele>
        <time>2021-06-16T10:54:26Z</time>
      </trkpt>
      <trkpt lat="45.69039" lon="2.98798">
        <ele>926.85</ele>
        <time>2021-06-16T10:54:28Z</time>
      </trkpt>
      <trkpt lat="45.6906" lon="2.98757">
        <ele>926.37</ele>
        <time>2021-06-16T10:54:39Z</time>
      </trkpt>
      <trkpt lat="45.69064" lon="2.98755">
        <ele>925.89</ele>
        <time>2021-06-16T10:54:40Z</time>
      </trkpt>
      <trkpt lat="45.69069" lon="2.98754">
        <ele>925.89</ele>
        <time>2021-06-16T10:54:41Z</time>
      </trkpt>
      <trkpt lat="45.69074" lon="2.98754">
        <ele>925.89</ele>
        <time>2021-06-16T10:54:42Z</time>
      </trkpt>
      <trkpt lat="45.69078" lon="2.98754">
        <ele>925.89</ele>
        <time>2021-06-16T10:54:43Z</time>
      </trkpt>
      <trkpt lat="45.69082" lon="2.98755">
        <ele>925.89</ele>
        <time>2021-06-16T10:54:44Z</time>
      </trkpt>
      <trkpt lat="45.69122" lon="2.98771">
        <ele>925.89</ele>
        <time>2021-06-16T10:54:55Z</time>
      </trkpt>
      <trkpt lat="45.69124" lon="2.98774">
        <ele>925.89</ele>
        <time>2021-06-16T10:54:56Z</time>
      </trkpt>
      <trkpt lat="45.69124" lon="2.98778">
        <ele>925.89</ele>
        <time>2021-06-16T10:54:57Z</time>
      </trkpt>
      <trkpt lat="45.69124" lon="2.98782">
        <ele>925.41</ele>
        <time>2021-06-16T10:54:58Z</time>
      </trkpt>
      <trkpt lat="45.69123" lon="2.98786">
        <ele>925.89</ele>
        <time>2021-06-16T10:54:59Z</time>
      </trkpt>
      <trkpt lat="45.69121" lon="2.9879">
        <ele>925.89</ele>
        <time>2021-06-16T10:55:00Z</time>
      </trkpt>
      <trkpt lat="45.6912" lon="2.98794">
        <ele>925.89</ele>
        <time>2021-06-16T10:55:01Z</time>
      </trkpt>
      <trkpt lat="45.69118" lon="2.98798">
        <ele>926.37</ele>
        <time>2021-06-16T10:55:02Z</time>
      </trkpt>
      <trkpt lat="45.69099" lon="2.9885">
        <ele>927.33</ele>
        <time>2021-06-16T10:55:17Z</time>
      </trkpt>
      <trkpt lat="45.69095" lon="2.98924">
        <ele>926.37</ele>
        <time>2021-06-16T10:55:29Z</time>
      </trkpt>
      <trkpt lat="45.69097" lon="2.98938">
        <ele>925.41</ele>
        <time>2021-06-16T10:55:31Z</time>
      </trkpt>
      <trkpt lat="45.69098" lon="2.98945">
        <ele>925.41</ele>
        <time>2021-06-16T10:55:32Z</time>
      </trkpt>
      <trkpt lat="45.69102" lon="2.98956">
        <ele>925.41</ele>
        <time>2021-06-16T10:55:34Z</time>
      </trkpt>
      <trkpt lat="45.69104" lon="2.98961">
        <ele>925.89</ele>
        <time>2021-06-16T10:55:35Z</time>
      </trkpt>
      <trkpt lat="45.69106" lon="2.98966">
        <ele>926.37</ele>
        <time>2021-06-16T10:55:36Z</time>
      </trkpt>
      <trkpt lat="45.69108" lon="2.9897">
        <ele>926.37</ele>
        <time>2021-06-16T10:55:37Z</time>
      </trkpt>
      <trkpt lat="45.69111" lon="2.98974">
        <ele>926.85</ele>
        <time>2021-06-16T10:55:38Z</time>
      </trkpt>
      <trkpt lat="45.69147" lon="2.99031">
        <ele>926.85</ele>
        <time>2021-06-16T10:55:52Z</time>
      </trkpt>
      <trkpt lat="45.69177" lon="2.99076">
        <ele>927.33</ele>
        <time>2021-06-16T10:56:04Z</time>
      </trkpt>
      <trkpt lat="45.69179" lon="2.99081">
        <ele>927.81</ele>
        <time>2021-06-16T10:56:05Z</time>
      </trkpt>
      <trkpt lat="45.69196" lon="2.99149">
        <ele>928.77</ele>
        <time>2021-06-16T10:56:18Z</time>
      </trkpt>
      <trkpt lat="45.69202" lon="2.99218">
        <ele>928.77</ele>
        <time>2021-06-16T10:56:31Z</time>
      </trkpt>
      <trkpt lat="45.69221" lon="2.99283">
        <ele>930.21</ele>
        <time>2021-06-16T10:56:45Z</time>
      </trkpt>
      <trkpt lat="45.69246" lon="2.99344">
        <ele>930.21</ele>
        <time>2021-06-16T10:56:59Z</time>
      </trkpt>
      <trkpt lat="45.69251" lon="2.99354">
        <ele>930.21</ele>
        <time>2021-06-16T10:57:01Z</time>
      </trkpt>
      <trkpt lat="45.69289" lon="2.99421">
        <ele>927.33</ele>
        <time>2021-06-16T10:57:13Z</time>
      </trkpt>
      <trkpt lat="45.69292" lon="2.99426">
        <ele>927.33</ele>
        <time>2021-06-16T10:57:14Z</time>
      </trkpt>
      <trkpt lat="45.69303" lon="2.99442">
        <ele>927.33</ele>
        <time>2021-06-16T10:57:17Z</time>
      </trkpt>
      <trkpt lat="45.69308" lon="2.99446">
        <ele>926.85</ele>
        <time>2021-06-16T10:57:18Z</time>
      </trkpt>
      <trkpt lat="45.69345" lon="2.99473">
        <ele>926.37</ele>
        <time>2021-06-16T10:57:26Z</time>
      </trkpt>
      <trkpt lat="45.69348" lon="2.99477">
        <ele>926.37</ele>
        <time>2021-06-16T10:57:27Z</time>
      </trkpt>
      <trkpt lat="45.69355" lon="2.99486">
        <ele>925.89</ele>
        <time>2021-06-16T10:57:29Z</time>
      </trkpt>
      <trkpt lat="45.69358" lon="2.99491">
        <ele>926.37</ele>
        <time>2021-06-16T10:57:30Z</time>
      </trkpt>
      <trkpt lat="45.69396" lon="2.99558">
        <ele>924.93</ele>
        <time>2021-06-16T10:57:44Z</time>
      </trkpt>
      <trkpt lat="45.69398" lon="2.99563">
        <ele>924.45</ele>
        <time>2021-06-16T10:57:45Z</time>
      </trkpt>
    </trkseg>
  </trk>
</gpx>